<?xml version="1.0" encoding="UTF-8" standalone="no" ?>
<gpx xmlns="http://www.topografix.com/GPX/1/1" xmlns:xsi="http://www.w3.org/2001/XMLSchema-instance" xsi:schemaLocation="http://www.topografix.com/GPX/1/1 http://www.topografix.com/GPX/1/1/gpx.xsd" version="1.1" creator="VisuGPX - https://www.visugpx.com">
  <metadata>
    <name>pr2 randonnees desaignes</name>
    <desc><![CDATA[chien méchant coution]]></desc>
  </metadata>
  <trk>
    <name><![CDATA[Tracé 29 oct. 2015 08:59:28]]></name>
    <trkseg>
    </trkseg>
      <trkpt lat="44.99551" lon="4.51665">
        <ele>414</ele>
        <time>2015-10-29T07:59:54Z</time>
      </trkpt>
      <trkpt lat="44.99554" lon="4.51674">
        <ele>426</ele>
        <time>2015-10-29T08:00:06Z</time>
      </trkpt>
      <trkpt lat="44.99562" lon="4.5168">
        <ele>423</ele>
        <time>2015-10-29T08:00:14Z</time>
      </trkpt>
      <trkpt lat="44.99566" lon="4.5169">
        <ele>418</ele>
        <time>2015-10-29T08:00:24Z</time>
      </trkpt>
      <trkpt lat="44.99575" lon="4.51692">
        <ele>418</ele>
        <time>2015-10-29T08:00:37Z</time>
      </trkpt>
      <trkpt lat="44.99578" lon="4.51682">
        <ele>417</ele>
        <time>2015-10-29T08:00:44Z</time>
      </trkpt>
      <trkpt lat="44.99583" lon="4.51676">
        <ele>416</ele>
        <time>2015-10-29T08:00:49Z</time>
      </trkpt>
      <trkpt lat="44.99588" lon="4.51669">
        <ele>417</ele>
        <time>2015-10-29T08:00:53Z</time>
      </trkpt>
      <trkpt lat="44.99594" lon="4.51661">
        <ele>416</ele>
        <time>2015-10-29T08:00:58Z</time>
      </trkpt>
      <trkpt lat="44.99598" lon="4.51654">
        <ele>416</ele>
        <time>2015-10-29T08:01:01Z</time>
      </trkpt>
      <trkpt lat="44.99606" lon="4.5165">
        <ele>416</ele>
        <time>2015-10-29T08:01:06Z</time>
      </trkpt>
      <trkpt lat="44.99614" lon="4.51647">
        <ele>416</ele>
        <time>2015-10-29T08:01:13Z</time>
      </trkpt>
      <trkpt lat="44.99623" lon="4.51645">
        <ele>417</ele>
        <time>2015-10-29T08:01:20Z</time>
      </trkpt>
      <trkpt lat="44.9963" lon="4.51647">
        <ele>417</ele>
        <time>2015-10-29T08:01:25Z</time>
      </trkpt>
      <trkpt lat="44.99638" lon="4.51651">
        <ele>418</ele>
        <time>2015-10-29T08:01:31Z</time>
      </trkpt>
      <trkpt lat="44.99645" lon="4.51654">
        <ele>417</ele>
        <time>2015-10-29T08:01:34Z</time>
      </trkpt>
      <trkpt lat="44.99651" lon="4.51655">
        <ele>417</ele>
        <time>2015-10-29T08:01:38Z</time>
      </trkpt>
      <trkpt lat="44.99658" lon="4.5166">
        <ele>416</ele>
        <time>2015-10-29T08:01:44Z</time>
      </trkpt>
      <trkpt lat="44.99665" lon="4.51663">
        <ele>416</ele>
        <time>2015-10-29T08:01:50Z</time>
      </trkpt>
      <trkpt lat="44.99673" lon="4.51666">
        <ele>416</ele>
        <time>2015-10-29T08:01:56Z</time>
      </trkpt>
      <trkpt lat="44.99679" lon="4.51669">
        <ele>416</ele>
        <time>2015-10-29T08:02:00Z</time>
      </trkpt>
      <trkpt lat="44.99687" lon="4.5167">
        <ele>416</ele>
        <time>2015-10-29T08:02:06Z</time>
      </trkpt>
      <trkpt lat="44.99693" lon="4.5167">
        <ele>415</ele>
        <time>2015-10-29T08:02:10Z</time>
      </trkpt>
      <trkpt lat="44.997" lon="4.51669">
        <ele>414</ele>
        <time>2015-10-29T08:02:14Z</time>
      </trkpt>
      <trkpt lat="44.99709" lon="4.51669">
        <ele>411</ele>
        <time>2015-10-29T08:02:19Z</time>
      </trkpt>
      <trkpt lat="44.99717" lon="4.51669">
        <ele>410</ele>
        <time>2015-10-29T08:02:24Z</time>
      </trkpt>
      <trkpt lat="44.99723" lon="4.51665">
        <ele>409</ele>
        <time>2015-10-29T08:02:29Z</time>
      </trkpt>
      <trkpt lat="44.9973" lon="4.51659">
        <ele>408</ele>
        <time>2015-10-29T08:02:34Z</time>
      </trkpt>
      <trkpt lat="44.99736" lon="4.51657">
        <ele>407</ele>
        <time>2015-10-29T08:02:38Z</time>
      </trkpt>
      <trkpt lat="44.99744" lon="4.51652">
        <ele>406</ele>
        <time>2015-10-29T08:02:44Z</time>
      </trkpt>
      <trkpt lat="44.99749" lon="4.51648">
        <ele>405</ele>
        <time>2015-10-29T08:02:48Z</time>
      </trkpt>
      <trkpt lat="44.99756" lon="4.51642">
        <ele>404</ele>
        <time>2015-10-29T08:02:53Z</time>
      </trkpt>
      <trkpt lat="44.99762" lon="4.51637">
        <ele>404</ele>
        <time>2015-10-29T08:02:58Z</time>
      </trkpt>
      <trkpt lat="44.99768" lon="4.51631">
        <ele>404</ele>
        <time>2015-10-29T08:03:03Z</time>
      </trkpt>
      <trkpt lat="44.99774" lon="4.51626">
        <ele>404</ele>
        <time>2015-10-29T08:03:08Z</time>
      </trkpt>
      <trkpt lat="44.9978" lon="4.51621">
        <ele>405</ele>
        <time>2015-10-29T08:03:14Z</time>
      </trkpt>
      <trkpt lat="44.99787" lon="4.51614">
        <ele>404</ele>
        <time>2015-10-29T08:03:18Z</time>
      </trkpt>
      <trkpt lat="44.99792" lon="4.51609">
        <ele>404</ele>
        <time>2015-10-29T08:03:22Z</time>
      </trkpt>
      <trkpt lat="44.99798" lon="4.51601">
        <ele>403</ele>
        <time>2015-10-29T08:03:28Z</time>
      </trkpt>
      <trkpt lat="44.99805" lon="4.51599">
        <ele>402</ele>
        <time>2015-10-29T08:03:32Z</time>
      </trkpt>
      <trkpt lat="44.99812" lon="4.51596">
        <ele>402</ele>
        <time>2015-10-29T08:03:38Z</time>
      </trkpt>
      <trkpt lat="44.99818" lon="4.51596">
        <ele>401</ele>
        <time>2015-10-29T08:03:42Z</time>
      </trkpt>
      <trkpt lat="44.99825" lon="4.51598">
        <ele>401</ele>
        <time>2015-10-29T08:03:47Z</time>
      </trkpt>
      <trkpt lat="44.99832" lon="4.51602">
        <ele>400</ele>
        <time>2015-10-29T08:03:53Z</time>
      </trkpt>
      <trkpt lat="44.9984" lon="4.51607">
        <ele>400</ele>
        <time>2015-10-29T08:03:59Z</time>
      </trkpt>
      <trkpt lat="44.99848" lon="4.51613">
        <ele>399</ele>
        <time>2015-10-29T08:04:05Z</time>
      </trkpt>
      <trkpt lat="44.99854" lon="4.51616">
        <ele>398</ele>
        <time>2015-10-29T08:04:10Z</time>
      </trkpt>
      <trkpt lat="44.99859" lon="4.5162">
        <ele>397</ele>
        <time>2015-10-29T08:04:14Z</time>
      </trkpt>
      <trkpt lat="44.99867" lon="4.51627">
        <ele>396</ele>
        <time>2015-10-29T08:04:23Z</time>
      </trkpt>
      <trkpt lat="44.99875" lon="4.5163">
        <ele>394</ele>
        <time>2015-10-29T08:04:29Z</time>
      </trkpt>
      <trkpt lat="44.99882" lon="4.51635">
        <ele>394</ele>
        <time>2015-10-29T08:04:34Z</time>
      </trkpt>
      <trkpt lat="44.99887" lon="4.51644">
        <ele>393</ele>
        <time>2015-10-29T08:04:44Z</time>
      </trkpt>
      <trkpt lat="44.9987" lon="4.51649">
        <ele>392</ele>
        <time>2015-10-29T08:04:49Z</time>
      </trkpt>
      <trkpt lat="44.99891" lon="4.51647">
        <ele>392</ele>
        <time>2015-10-29T08:04:52Z</time>
      </trkpt>
      <trkpt lat="44.99902" lon="4.5165">
        <ele>391</ele>
        <time>2015-10-29T08:04:56Z</time>
      </trkpt>
      <trkpt lat="44.99907" lon="4.51654">
        <ele>390</ele>
        <time>2015-10-29T08:05:01Z</time>
      </trkpt>
      <trkpt lat="44.99916" lon="4.51657">
        <ele>389</ele>
        <time>2015-10-29T08:05:05Z</time>
      </trkpt>
      <trkpt lat="44.99922" lon="4.51656">
        <ele>389</ele>
        <time>2015-10-29T08:05:08Z</time>
      </trkpt>
      <trkpt lat="44.9993" lon="4.51663">
        <ele>390</ele>
        <time>2015-10-29T08:05:12Z</time>
      </trkpt>
      <trkpt lat="44.99938" lon="4.51664">
        <ele>391</ele>
        <time>2015-10-29T08:05:16Z</time>
      </trkpt>
      <trkpt lat="44.99945" lon="4.51662">
        <ele>392</ele>
        <time>2015-10-29T08:05:20Z</time>
      </trkpt>
      <trkpt lat="44.99952" lon="4.51659">
        <ele>393</ele>
        <time>2015-10-29T08:05:24Z</time>
      </trkpt>
      <trkpt lat="44.99955" lon="4.5165">
        <ele>393</ele>
        <time>2015-10-29T08:05:29Z</time>
      </trkpt>
      <trkpt lat="44.99959" lon="4.51644">
        <ele>393</ele>
        <time>2015-10-29T08:05:32Z</time>
      </trkpt>
      <trkpt lat="44.99965" lon="4.5164">
        <ele>393</ele>
        <time>2015-10-29T08:05:36Z</time>
      </trkpt>
      <trkpt lat="44.99972" lon="4.51633">
        <ele>394</ele>
        <time>2015-10-29T08:05:42Z</time>
      </trkpt>
      <trkpt lat="44.99978" lon="4.51623">
        <ele>395</ele>
        <time>2015-10-29T08:05:49Z</time>
      </trkpt>
      <trkpt lat="44.99984" lon="4.51616">
        <ele>395</ele>
        <time>2015-10-29T08:05:56Z</time>
      </trkpt>
      <trkpt lat="44.99989" lon="4.51606">
        <ele>396</ele>
        <time>2015-10-29T08:06:02Z</time>
      </trkpt>
      <trkpt lat="44.99995" lon="4.51604">
        <ele>396</ele>
        <time>2015-10-29T08:06:05Z</time>
      </trkpt>
      <trkpt lat="45.00001" lon="4.51598">
        <ele>396</ele>
        <time>2015-10-29T08:06:10Z</time>
      </trkpt>
      <trkpt lat="45.00006" lon="4.51588">
        <ele>396</ele>
        <time>2015-10-29T08:06:15Z</time>
      </trkpt>
      <trkpt lat="45.0001" lon="4.5158">
        <ele>397</ele>
        <time>2015-10-29T08:06:20Z</time>
      </trkpt>
      <trkpt lat="45.00016" lon="4.51573">
        <ele>397</ele>
        <time>2015-10-29T08:06:25Z</time>
      </trkpt>
      <trkpt lat="45.00021" lon="4.51567">
        <ele>398</ele>
        <time>2015-10-29T08:06:30Z</time>
      </trkpt>
      <trkpt lat="45.00026" lon="4.51562">
        <ele>398</ele>
        <time>2015-10-29T08:06:34Z</time>
      </trkpt>
      <trkpt lat="45.00034" lon="4.51558">
        <ele>397</ele>
        <time>2015-10-29T08:06:38Z</time>
      </trkpt>
      <trkpt lat="45.0004" lon="4.51554">
        <ele>397</ele>
        <time>2015-10-29T08:06:43Z</time>
      </trkpt>
      <trkpt lat="45.00046" lon="4.51549">
        <ele>397</ele>
        <time>2015-10-29T08:06:48Z</time>
      </trkpt>
      <trkpt lat="45.00052" lon="4.51544">
        <ele>397</ele>
        <time>2015-10-29T08:06:52Z</time>
      </trkpt>
      <trkpt lat="45.0006" lon="4.51538">
        <ele>396</ele>
        <time>2015-10-29T08:06:59Z</time>
      </trkpt>
      <trkpt lat="45.00064" lon="4.51532">
        <ele>394</ele>
        <time>2015-10-29T08:07:04Z</time>
      </trkpt>
      <trkpt lat="45.00068" lon="4.51525">
        <ele>393</ele>
        <time>2015-10-29T08:07:08Z</time>
      </trkpt>
      <trkpt lat="45.00074" lon="4.51519">
        <ele>391</ele>
        <time>2015-10-29T08:07:14Z</time>
      </trkpt>
      <trkpt lat="45.00079" lon="4.51507">
        <ele>391</ele>
        <time>2015-10-29T08:07:19Z</time>
      </trkpt>
      <trkpt lat="45.00081" lon="4.51497">
        <ele>393</ele>
        <time>2015-10-29T08:07:23Z</time>
      </trkpt>
      <trkpt lat="45.00085" lon="4.51487">
        <ele>399</ele>
        <time>2015-10-29T08:07:29Z</time>
      </trkpt>
      <trkpt lat="45.00087" lon="4.51476">
        <ele>402</ele>
        <time>2015-10-29T08:07:34Z</time>
      </trkpt>
      <trkpt lat="45.00086" lon="4.51466">
        <ele>406</ele>
        <time>2015-10-29T08:07:41Z</time>
      </trkpt>
      <trkpt lat="45.00091" lon="4.51456">
        <ele>410</ele>
        <time>2015-10-29T08:07:50Z</time>
      </trkpt>
      <trkpt lat="45.00097" lon="4.5145">
        <ele>413</ele>
        <time>2015-10-29T08:07:57Z</time>
      </trkpt>
      <trkpt lat="45.00102" lon="4.51444">
        <ele>415</ele>
        <time>2015-10-29T08:08:03Z</time>
      </trkpt>
      <trkpt lat="45.00107" lon="4.51436">
        <ele>413</ele>
        <time>2015-10-29T08:08:09Z</time>
      </trkpt>
      <trkpt lat="45.00115" lon="4.51433">
        <ele>410</ele>
        <time>2015-10-29T08:08:12Z</time>
      </trkpt>
      <trkpt lat="45.00124" lon="4.5143">
        <ele>406</ele>
        <time>2015-10-29T08:08:17Z</time>
      </trkpt>
      <trkpt lat="45.00133" lon="4.51428">
        <ele>403</ele>
        <time>2015-10-29T08:08:21Z</time>
      </trkpt>
      <trkpt lat="45.00136" lon="4.51427">
        <ele>400</ele>
        <time>2015-10-29T08:08:25Z</time>
      </trkpt>
      <trkpt lat="45.00144" lon="4.51423">
        <ele>398</ele>
        <time>2015-10-29T08:08:29Z</time>
      </trkpt>
      <trkpt lat="45.0015" lon="4.51416">
        <ele>396</ele>
        <time>2015-10-29T08:08:32Z</time>
      </trkpt>
      <trkpt lat="45.00166" lon="4.51416">
        <ele>394</ele>
        <time>2015-10-29T08:08:37Z</time>
      </trkpt>
      <trkpt lat="45.00171" lon="4.51412">
        <ele>392</ele>
        <time>2015-10-29T08:08:40Z</time>
      </trkpt>
      <trkpt lat="45.0018" lon="4.5141">
        <ele>389</ele>
        <time>2015-10-29T08:08:44Z</time>
      </trkpt>
      <trkpt lat="45.00187" lon="4.51409">
        <ele>386</ele>
        <time>2015-10-29T08:08:48Z</time>
      </trkpt>
      <trkpt lat="45.00193" lon="4.51405">
        <ele>385</ele>
        <time>2015-10-29T08:08:52Z</time>
      </trkpt>
      <trkpt lat="45.00199" lon="4.514">
        <ele>383</ele>
        <time>2015-10-29T08:08:56Z</time>
      </trkpt>
      <trkpt lat="45.00204" lon="4.5139">
        <ele>382</ele>
        <time>2015-10-29T08:09:03Z</time>
      </trkpt>
      <trkpt lat="45.00212" lon="4.51382">
        <ele>381</ele>
        <time>2015-10-29T08:09:08Z</time>
      </trkpt>
      <trkpt lat="45.00213" lon="4.51372">
        <ele>385</ele>
        <time>2015-10-29T08:09:12Z</time>
      </trkpt>
      <trkpt lat="45.0021" lon="4.51361">
        <ele>389</ele>
        <time>2015-10-29T08:09:15Z</time>
      </trkpt>
      <trkpt lat="45.00219" lon="4.51356">
        <ele>389</ele>
        <time>2015-10-29T08:09:21Z</time>
      </trkpt>
      <trkpt lat="45.00226" lon="4.51351">
        <ele>391</ele>
        <time>2015-10-29T08:09:28Z</time>
      </trkpt>
      <trkpt lat="45.00228" lon="4.51339">
        <ele>398</ele>
        <time>2015-10-29T08:09:37Z</time>
      </trkpt>
      <trkpt lat="45.00234" lon="4.51336">
        <ele>400</ele>
        <time>2015-10-29T08:09:42Z</time>
      </trkpt>
      <trkpt lat="45.00242" lon="4.51329">
        <ele>402</ele>
        <time>2015-10-29T08:09:48Z</time>
      </trkpt>
      <trkpt lat="45.00247" lon="4.51321">
        <ele>403</ele>
        <time>2015-10-29T08:09:54Z</time>
      </trkpt>
      <trkpt lat="45.00245" lon="4.51327">
        <ele>405</ele>
        <time>2015-10-29T08:10:04Z</time>
      </trkpt>
      <trkpt lat="45.00252" lon="4.51323">
        <ele>403</ele>
        <time>2015-10-29T08:10:18Z</time>
      </trkpt>
      <trkpt lat="45.00284" lon="4.51322">
        <ele>405</ele>
        <time>2015-10-29T08:10:22Z</time>
      </trkpt>
      <trkpt lat="45.00293" lon="4.51327">
        <ele>405</ele>
        <time>2015-10-29T08:10:26Z</time>
      </trkpt>
      <trkpt lat="45.00298" lon="4.51333">
        <ele>404</ele>
        <time>2015-10-29T08:10:30Z</time>
      </trkpt>
      <trkpt lat="45.00302" lon="4.51342">
        <ele>403</ele>
        <time>2015-10-29T08:10:36Z</time>
      </trkpt>
      <trkpt lat="45.00304" lon="4.51353">
        <ele>402</ele>
        <time>2015-10-29T08:10:42Z</time>
      </trkpt>
      <trkpt lat="45.00303" lon="4.51365">
        <ele>402</ele>
        <time>2015-10-29T08:10:48Z</time>
      </trkpt>
      <trkpt lat="45.00307" lon="4.51375">
        <ele>401</ele>
        <time>2015-10-29T08:10:54Z</time>
      </trkpt>
      <trkpt lat="45.00308" lon="4.51387">
        <ele>400</ele>
        <time>2015-10-29T08:11:02Z</time>
      </trkpt>
      <trkpt lat="45.00311" lon="4.51394">
        <ele>400</ele>
        <time>2015-10-29T08:11:06Z</time>
      </trkpt>
      <trkpt lat="45.00322" lon="4.51412">
        <ele>398</ele>
        <time>2015-10-29T08:11:15Z</time>
      </trkpt>
      <trkpt lat="45.00327" lon="4.51422">
        <ele>396</ele>
        <time>2015-10-29T08:11:23Z</time>
      </trkpt>
      <trkpt lat="45.00334" lon="4.51429">
        <ele>394</ele>
        <time>2015-10-29T08:11:30Z</time>
      </trkpt>
      <trkpt lat="45.00337" lon="4.51439">
        <ele>393</ele>
        <time>2015-10-29T08:11:36Z</time>
      </trkpt>
      <trkpt lat="45.00338" lon="4.51443">
        <ele>392</ele>
        <time>2015-10-29T08:11:38Z</time>
      </trkpt>
      <trkpt lat="45.00348" lon="4.51459">
        <ele>391</ele>
        <time>2015-10-29T08:11:47Z</time>
      </trkpt>
      <trkpt lat="45.00356" lon="4.51462">
        <ele>394</ele>
        <time>2015-10-29T08:11:54Z</time>
      </trkpt>
      <trkpt lat="45.00366" lon="4.51465">
        <ele>401</ele>
        <time>2015-10-29T08:11:58Z</time>
      </trkpt>
      <trkpt lat="45.00373" lon="4.51466">
        <ele>405</ele>
        <time>2015-10-29T08:12:02Z</time>
      </trkpt>
      <trkpt lat="45.00381" lon="4.51464">
        <ele>409</ele>
        <time>2015-10-29T08:12:08Z</time>
      </trkpt>
      <trkpt lat="45.00387" lon="4.51459">
        <ele>413</ele>
        <time>2015-10-29T08:12:16Z</time>
      </trkpt>
      <trkpt lat="45.00398" lon="4.51447">
        <ele>418</ele>
        <time>2015-10-29T08:12:20Z</time>
      </trkpt>
      <trkpt lat="45.00402" lon="4.51444">
        <ele>419</ele>
        <time>2015-10-29T08:12:24Z</time>
      </trkpt>
      <trkpt lat="45.0041" lon="4.51431">
        <ele>423</ele>
        <time>2015-10-29T08:12:31Z</time>
      </trkpt>
      <trkpt lat="45.00409" lon="4.5142">
        <ele>423</ele>
        <time>2015-10-29T08:12:34Z</time>
      </trkpt>
      <trkpt lat="45.0041" lon="4.51411">
        <ele>423</ele>
        <time>2015-10-29T08:12:39Z</time>
      </trkpt>
      <trkpt lat="45.00419" lon="4.51404">
        <ele>423</ele>
        <time>2015-10-29T08:12:43Z</time>
      </trkpt>
      <trkpt lat="45.00424" lon="4.51394">
        <ele>426</ele>
        <time>2015-10-29T08:12:52Z</time>
      </trkpt>
      <trkpt lat="45.0042" lon="4.51379">
        <ele>430</ele>
        <time>2015-10-29T08:13:00Z</time>
      </trkpt>
      <trkpt lat="45.00423" lon="4.51379">
        <ele>431</ele>
        <time>2015-10-29T08:13:02Z</time>
      </trkpt>
      <trkpt lat="45.00429" lon="4.51374">
        <ele>432</ele>
        <time>2015-10-29T08:13:07Z</time>
      </trkpt>
      <trkpt lat="45.0043" lon="4.5136">
        <ele>433</ele>
        <time>2015-10-29T08:13:11Z</time>
      </trkpt>
      <trkpt lat="45.00447" lon="4.51381">
        <ele>446</ele>
        <time>2015-10-29T08:13:30Z</time>
      </trkpt>
      <trkpt lat="45.00446" lon="4.51385">
        <ele>446</ele>
        <time>2015-10-29T08:13:32Z</time>
      </trkpt>
      <trkpt lat="45.00441" lon="4.51407">
        <ele>450</ele>
        <time>2015-10-29T08:13:44Z</time>
      </trkpt>
      <trkpt lat="45.0044" lon="4.5141">
        <ele>450</ele>
        <time>2015-10-29T08:13:46Z</time>
      </trkpt>
      <trkpt lat="45.00437" lon="4.51427">
        <ele>452</ele>
        <time>2015-10-29T08:13:56Z</time>
      </trkpt>
      <trkpt lat="45.00435" lon="4.51435">
        <ele>452</ele>
        <time>2015-10-29T08:14:00Z</time>
      </trkpt>
      <trkpt lat="45.00434" lon="4.51445">
        <ele>453</ele>
        <time>2015-10-29T08:14:04Z</time>
      </trkpt>
      <trkpt lat="45.00433" lon="4.51447">
        <ele>453</ele>
        <time>2015-10-29T08:14:15Z</time>
      </trkpt>
      <trkpt lat="45.0043" lon="4.51471">
        <ele>455</ele>
        <time>2015-10-29T08:14:16Z</time>
      </trkpt>
      <trkpt lat="45.00431" lon="4.51493">
        <ele>457</ele>
        <time>2015-10-29T08:14:28Z</time>
      </trkpt>
      <trkpt lat="45.00428" lon="4.51501">
        <ele>458</ele>
        <time>2015-10-29T08:14:32Z</time>
      </trkpt>
      <trkpt lat="45.00427" lon="4.5151">
        <ele>459</ele>
        <time>2015-10-29T08:14:36Z</time>
      </trkpt>
      <trkpt lat="45.00422" lon="4.51524">
        <ele>461</ele>
        <time>2015-10-29T08:14:44Z</time>
      </trkpt>
      <trkpt lat="45.00422" lon="4.51535">
        <ele>462</ele>
        <time>2015-10-29T08:14:51Z</time>
      </trkpt>
      <trkpt lat="45.00422" lon="4.51543">
        <ele>463</ele>
        <time>2015-10-29T08:14:55Z</time>
      </trkpt>
      <trkpt lat="45.00423" lon="4.51554">
        <ele>464</ele>
        <time>2015-10-29T08:15:02Z</time>
      </trkpt>
      <trkpt lat="45.00423" lon="4.51559">
        <ele>465</ele>
        <time>2015-10-29T08:15:04Z</time>
      </trkpt>
      <trkpt lat="45.00421" lon="4.51568">
        <ele>465</ele>
        <time>2015-10-29T08:15:08Z</time>
      </trkpt>
      <trkpt lat="45.00422" lon="4.51598">
        <ele>469</ele>
        <time>2015-10-29T08:15:25Z</time>
      </trkpt>
      <trkpt lat="45.00423" lon="4.5161">
        <ele>470</ele>
        <time>2015-10-29T08:15:34Z</time>
      </trkpt>
      <trkpt lat="45.00419" lon="4.51623">
        <ele>471</ele>
        <time>2015-10-29T08:15:41Z</time>
      </trkpt>
      <trkpt lat="45.00416" lon="4.51639">
        <ele>473</ele>
        <time>2015-10-29T08:15:47Z</time>
      </trkpt>
      <trkpt lat="45.00412" lon="4.51645">
        <ele>473</ele>
        <time>2015-10-29T08:15:53Z</time>
      </trkpt>
      <trkpt lat="45.00407" lon="4.51649">
        <ele>473</ele>
        <time>2015-10-29T08:15:57Z</time>
      </trkpt>
      <trkpt lat="45.004" lon="4.51652">
        <ele>474</ele>
        <time>2015-10-29T08:16:02Z</time>
      </trkpt>
      <trkpt lat="45.00397" lon="4.51651">
        <ele>475</ele>
        <time>2015-10-29T08:16:13Z</time>
      </trkpt>
      <trkpt lat="45.00385" lon="4.51656">
        <ele>477</ele>
        <time>2015-10-29T08:16:13Z</time>
      </trkpt>
      <trkpt lat="45.00363" lon="4.51648">
        <ele>479</ele>
        <time>2015-10-29T08:16:29Z</time>
      </trkpt>
      <trkpt lat="45.00353" lon="4.51648">
        <ele>479</ele>
        <time>2015-10-29T08:16:34Z</time>
      </trkpt>
      <trkpt lat="45.00346" lon="4.51649">
        <ele>478</ele>
        <time>2015-10-29T08:16:38Z</time>
      </trkpt>
      <trkpt lat="45.00339" lon="4.5165">
        <ele>477</ele>
        <time>2015-10-29T08:16:44Z</time>
      </trkpt>
      <trkpt lat="45.00336" lon="4.51651">
        <ele>477</ele>
        <time>2015-10-29T08:16:46Z</time>
      </trkpt>
      <trkpt lat="45.00328" lon="4.51657">
        <ele>476</ele>
        <time>2015-10-29T08:17:00Z</time>
      </trkpt>
      <trkpt lat="45.00315" lon="4.51667">
        <ele>475</ele>
        <time>2015-10-29T08:17:02Z</time>
      </trkpt>
      <trkpt lat="45.00303" lon="4.51673">
        <ele>475</ele>
        <time>2015-10-29T08:17:13Z</time>
      </trkpt>
      <trkpt lat="45.00297" lon="4.51672">
        <ele>475</ele>
        <time>2015-10-29T08:17:19Z</time>
      </trkpt>
      <trkpt lat="45.00287" lon="4.51667">
        <ele>476</ele>
        <time>2015-10-29T08:17:32Z</time>
      </trkpt>
      <trkpt lat="45.00281" lon="4.51659">
        <ele>476</ele>
        <time>2015-10-29T08:17:36Z</time>
      </trkpt>
      <trkpt lat="45.00243" lon="4.51638">
        <ele>473</ele>
        <time>2015-10-29T08:18:00Z</time>
      </trkpt>
      <trkpt lat="45.00236" lon="4.5164">
        <ele>473</ele>
        <time>2015-10-29T08:18:05Z</time>
      </trkpt>
      <trkpt lat="45.00201" lon="4.51661">
        <ele>470</ele>
        <time>2015-10-29T08:18:32Z</time>
      </trkpt>
      <trkpt lat="45.00194" lon="4.5167">
        <ele>469</ele>
        <time>2015-10-29T08:18:36Z</time>
      </trkpt>
      <trkpt lat="45.00189" lon="4.51678">
        <ele>468</ele>
        <time>2015-10-29T08:18:44Z</time>
      </trkpt>
      <trkpt lat="45.00181" lon="4.51687">
        <ele>468</ele>
        <time>2015-10-29T08:18:48Z</time>
      </trkpt>
      <trkpt lat="45.0018" lon="4.51688">
        <ele>467</ele>
        <time>2015-10-29T08:18:50Z</time>
      </trkpt>
      <trkpt lat="45.0017" lon="4.51704">
        <ele>467</ele>
        <time>2015-10-29T08:19:00Z</time>
      </trkpt>
      <trkpt lat="45.00166" lon="4.51713">
        <ele>466</ele>
        <time>2015-10-29T08:19:05Z</time>
      </trkpt>
      <trkpt lat="45.00163" lon="4.51723">
        <ele>466</ele>
        <time>2015-10-29T08:19:09Z</time>
      </trkpt>
      <trkpt lat="45.00162" lon="4.51727">
        <ele>465</ele>
        <time>2015-10-29T08:19:12Z</time>
      </trkpt>
      <trkpt lat="45.00157" lon="4.51741">
        <ele>464</ele>
        <time>2015-10-29T08:19:20Z</time>
      </trkpt>
      <trkpt lat="45.00155" lon="4.51746">
        <ele>464</ele>
        <time>2015-10-29T08:19:21Z</time>
      </trkpt>
      <trkpt lat="45.00149" lon="4.51764">
        <ele>464</ele>
        <time>2015-10-29T08:19:32Z</time>
      </trkpt>
      <trkpt lat="45.00147" lon="4.51774">
        <ele>463</ele>
        <time>2015-10-29T08:19:40Z</time>
      </trkpt>
      <trkpt lat="45.00144" lon="4.51786">
        <ele>464</ele>
        <time>2015-10-29T08:19:40Z</time>
      </trkpt>
      <trkpt lat="45.00137" lon="4.51805">
        <ele>464</ele>
        <time>2015-10-29T08:19:51Z</time>
      </trkpt>
      <trkpt lat="45.00135" lon="4.51817">
        <ele>465</ele>
        <time>2015-10-29T08:19:56Z</time>
      </trkpt>
      <trkpt lat="45.00132" lon="4.51826">
        <ele>465</ele>
        <time>2015-10-29T08:20:02Z</time>
      </trkpt>
      <trkpt lat="45.00126" lon="4.51833">
        <ele>466</ele>
        <time>2015-10-29T08:20:07Z</time>
      </trkpt>
      <trkpt lat="45.00121" lon="4.51842">
        <ele>467</ele>
        <time>2015-10-29T08:20:13Z</time>
      </trkpt>
      <trkpt lat="45.00118" lon="4.5185">
        <ele>468</ele>
        <time>2015-10-29T08:20:18Z</time>
      </trkpt>
      <trkpt lat="45.00116" lon="4.51855">
        <ele>469</ele>
        <time>2015-10-29T08:20:22Z</time>
      </trkpt>
      <trkpt lat="45.00114" lon="4.51873">
        <ele>471</ele>
        <time>2015-10-29T08:20:30Z</time>
      </trkpt>
      <trkpt lat="45.00116" lon="4.51876">
        <ele>473</ele>
        <time>2015-10-29T08:20:45Z</time>
      </trkpt>
      <trkpt lat="45.00119" lon="4.51888">
        <ele>477</ele>
        <time>2015-10-29T08:20:47Z</time>
      </trkpt>
      <trkpt lat="45.00122" lon="4.51897">
        <ele>481</ele>
        <time>2015-10-29T08:20:51Z</time>
      </trkpt>
      <trkpt lat="45.00122" lon="4.51909">
        <ele>488</ele>
        <time>2015-10-29T08:21:05Z</time>
      </trkpt>
      <trkpt lat="45.00109" lon="4.51896">
        <ele>491</ele>
        <time>2015-10-29T08:21:13Z</time>
      </trkpt>
      <trkpt lat="45.00101" lon="4.51899">
        <ele>493</ele>
        <time>2015-10-29T08:21:21Z</time>
      </trkpt>
      <trkpt lat="45.00097" lon="4.51909">
        <ele>494</ele>
        <time>2015-10-29T08:21:31Z</time>
      </trkpt>
      <trkpt lat="45.00096" lon="4.51913">
        <ele>494</ele>
        <time>2015-10-29T08:21:35Z</time>
      </trkpt>
      <trkpt lat="45.00093" lon="4.51931">
        <ele>494</ele>
        <time>2015-10-29T08:21:45Z</time>
      </trkpt>
      <trkpt lat="45.00091" lon="4.51941">
        <ele>495</ele>
        <time>2015-10-29T08:21:53Z</time>
      </trkpt>
      <trkpt lat="45.0009" lon="4.51953">
        <ele>495</ele>
        <time>2015-10-29T08:22:00Z</time>
      </trkpt>
      <trkpt lat="45.00089" lon="4.51962">
        <ele>495</ele>
        <time>2015-10-29T08:22:07Z</time>
      </trkpt>
      <trkpt lat="45.00089" lon="4.51976">
        <ele>496</ele>
        <time>2015-10-29T08:22:12Z</time>
      </trkpt>
      <trkpt lat="45.0009" lon="4.51988">
        <ele>496</ele>
        <time>2015-10-29T08:22:20Z</time>
      </trkpt>
      <trkpt lat="45.00095" lon="4.51998">
        <ele>505</ele>
        <time>2015-10-29T08:22:32Z</time>
      </trkpt>
      <trkpt lat="45.00101" lon="4.51995">
        <ele>506</ele>
        <time>2015-10-29T08:22:39Z</time>
      </trkpt>
      <trkpt lat="45.00109" lon="4.51991">
        <ele>508</ele>
        <time>2015-10-29T08:22:44Z</time>
      </trkpt>
      <trkpt lat="45.00115" lon="4.51982">
        <ele>510</ele>
        <time>2015-10-29T08:22:49Z</time>
      </trkpt>
      <trkpt lat="45.00119" lon="4.51972">
        <ele>511</ele>
        <time>2015-10-29T08:22:54Z</time>
      </trkpt>
      <trkpt lat="45.00124" lon="4.51964">
        <ele>513</ele>
        <time>2015-10-29T08:23:00Z</time>
      </trkpt>
      <trkpt lat="45.00131" lon="4.51959">
        <ele>515</ele>
        <time>2015-10-29T08:23:07Z</time>
      </trkpt>
      <trkpt lat="45.00139" lon="4.51961">
        <ele>517</ele>
        <time>2015-10-29T08:23:11Z</time>
      </trkpt>
      <trkpt lat="45.00147" lon="4.51962">
        <ele>519</ele>
        <time>2015-10-29T08:23:15Z</time>
      </trkpt>
      <trkpt lat="45.00155" lon="4.51965">
        <ele>521</ele>
        <time>2015-10-29T08:23:20Z</time>
      </trkpt>
      <trkpt lat="45.00161" lon="4.51965">
        <ele>523</ele>
        <time>2015-10-29T08:23:24Z</time>
      </trkpt>
      <trkpt lat="45.0017" lon="4.51966">
        <ele>525</ele>
        <time>2015-10-29T08:23:29Z</time>
      </trkpt>
      <trkpt lat="45.00178" lon="4.51967">
        <ele>526</ele>
        <time>2015-10-29T08:23:34Z</time>
      </trkpt>
      <trkpt lat="45.00185" lon="4.51969">
        <ele>529</ele>
        <time>2015-10-29T08:23:39Z</time>
      </trkpt>
      <trkpt lat="45.00193" lon="4.51969">
        <ele>532</ele>
        <time>2015-10-29T08:23:44Z</time>
      </trkpt>
      <trkpt lat="45.00201" lon="4.51969">
        <ele>535</ele>
        <time>2015-10-29T08:23:49Z</time>
      </trkpt>
      <trkpt lat="45.0021" lon="4.5197">
        <ele>537</ele>
        <time>2015-10-29T08:23:55Z</time>
      </trkpt>
      <trkpt lat="45.00217" lon="4.51972">
        <ele>540</ele>
        <time>2015-10-29T08:24:00Z</time>
      </trkpt>
      <trkpt lat="45.00225" lon="4.5197">
        <ele>542</ele>
        <time>2015-10-29T08:24:06Z</time>
      </trkpt>
      <trkpt lat="45.00231" lon="4.51967">
        <ele>544</ele>
        <time>2015-10-29T08:24:11Z</time>
      </trkpt>
      <trkpt lat="45.00238" lon="4.51961">
        <ele>545</ele>
        <time>2015-10-29T08:24:16Z</time>
      </trkpt>
      <trkpt lat="45.00245" lon="4.51957">
        <ele>547</ele>
        <time>2015-10-29T08:24:21Z</time>
      </trkpt>
      <trkpt lat="45.00252" lon="4.51951">
        <ele>548</ele>
        <time>2015-10-29T08:24:27Z</time>
      </trkpt>
      <trkpt lat="45.0026" lon="4.51945">
        <ele>549</ele>
        <time>2015-10-29T08:24:32Z</time>
      </trkpt>
      <trkpt lat="45.00266" lon="4.5194">
        <ele>551</ele>
        <time>2015-10-29T08:24:36Z</time>
      </trkpt>
      <trkpt lat="45.00271" lon="4.51935">
        <ele>552</ele>
        <time>2015-10-29T08:24:40Z</time>
      </trkpt>
      <trkpt lat="45.00275" lon="4.51929">
        <ele>553</ele>
        <time>2015-10-29T08:24:44Z</time>
      </trkpt>
      <trkpt lat="45.00283" lon="4.51923">
        <ele>554</ele>
        <time>2015-10-29T08:24:50Z</time>
      </trkpt>
      <trkpt lat="45.00291" lon="4.51921">
        <ele>555</ele>
        <time>2015-10-29T08:24:56Z</time>
      </trkpt>
      <trkpt lat="45.00298" lon="4.51918">
        <ele>556</ele>
        <time>2015-10-29T08:25:02Z</time>
      </trkpt>
      <trkpt lat="45.00306" lon="4.51914">
        <ele>556</ele>
        <time>2015-10-29T08:25:09Z</time>
      </trkpt>
      <trkpt lat="45.00314" lon="4.51911">
        <ele>555</ele>
        <time>2015-10-29T08:25:14Z</time>
      </trkpt>
      <trkpt lat="45.00322" lon="4.51906">
        <ele>555</ele>
        <time>2015-10-29T08:25:20Z</time>
      </trkpt>
      <trkpt lat="45.00327" lon="4.51902">
        <ele>555</ele>
        <time>2015-10-29T08:25:24Z</time>
      </trkpt>
      <trkpt lat="45.00335" lon="4.519">
        <ele>555</ele>
        <time>2015-10-29T08:25:28Z</time>
      </trkpt>
      <trkpt lat="45.00342" lon="4.51898">
        <ele>556</ele>
        <time>2015-10-29T08:25:32Z</time>
      </trkpt>
      <trkpt lat="45.0035" lon="4.51894">
        <ele>557</ele>
        <time>2015-10-29T08:25:37Z</time>
      </trkpt>
      <trkpt lat="45.00358" lon="4.51891">
        <ele>556</ele>
        <time>2015-10-29T08:25:44Z</time>
      </trkpt>
      <trkpt lat="45.00365" lon="4.51889">
        <ele>555</ele>
        <time>2015-10-29T08:25:50Z</time>
      </trkpt>
      <trkpt lat="45.00373" lon="4.51891">
        <ele>553</ele>
        <time>2015-10-29T08:25:56Z</time>
      </trkpt>
      <trkpt lat="45.0038" lon="4.51896">
        <ele>554</ele>
        <time>2015-10-29T08:26:02Z</time>
      </trkpt>
      <trkpt lat="45.00386" lon="4.51903">
        <ele>554</ele>
        <time>2015-10-29T08:26:08Z</time>
      </trkpt>
      <trkpt lat="45.00387" lon="4.51914">
        <ele>554</ele>
        <time>2015-10-29T08:26:13Z</time>
      </trkpt>
      <trkpt lat="45.00381" lon="4.51923">
        <ele>555</ele>
        <time>2015-10-29T08:26:19Z</time>
      </trkpt>
      <trkpt lat="45.00374" lon="4.5193">
        <ele>556</ele>
        <time>2015-10-29T08:26:25Z</time>
      </trkpt>
      <trkpt lat="45.00368" lon="4.51937">
        <ele>557</ele>
        <time>2015-10-29T08:26:31Z</time>
      </trkpt>
      <trkpt lat="45.00363" lon="4.51944">
        <ele>557</ele>
        <time>2015-10-29T08:26:36Z</time>
      </trkpt>
      <trkpt lat="45.00359" lon="4.51951">
        <ele>558</ele>
        <time>2015-10-29T08:26:40Z</time>
      </trkpt>
      <trkpt lat="45.00354" lon="4.51959">
        <ele>558</ele>
        <time>2015-10-29T08:26:45Z</time>
      </trkpt>
      <trkpt lat="45.00351" lon="4.5197">
        <ele>559</ele>
        <time>2015-10-29T08:26:50Z</time>
      </trkpt>
      <trkpt lat="45.0035" lon="4.5198">
        <ele>560</ele>
        <time>2015-10-29T08:26:55Z</time>
      </trkpt>
      <trkpt lat="45.00351" lon="4.51992">
        <ele>561</ele>
        <time>2015-10-29T08:27:01Z</time>
      </trkpt>
      <trkpt lat="45.00352" lon="4.52004">
        <ele>562</ele>
        <time>2015-10-29T08:27:07Z</time>
      </trkpt>
      <trkpt lat="45.00351" lon="4.52013">
        <ele>562</ele>
        <time>2015-10-29T08:27:11Z</time>
      </trkpt>
      <trkpt lat="45.00351" lon="4.52024">
        <ele>563</ele>
        <time>2015-10-29T08:27:17Z</time>
      </trkpt>
      <trkpt lat="45.00351" lon="4.52034">
        <ele>563</ele>
        <time>2015-10-29T08:27:22Z</time>
      </trkpt>
      <trkpt lat="45.00352" lon="4.52044">
        <ele>564</ele>
        <time>2015-10-29T08:27:27Z</time>
      </trkpt>
      <trkpt lat="45.00353" lon="4.52056">
        <ele>564</ele>
        <time>2015-10-29T08:27:33Z</time>
      </trkpt>
      <trkpt lat="45.00353" lon="4.52067">
        <ele>565</ele>
        <time>2015-10-29T08:27:39Z</time>
      </trkpt>
      <trkpt lat="45.00354" lon="4.52079">
        <ele>565</ele>
        <time>2015-10-29T08:27:46Z</time>
      </trkpt>
      <trkpt lat="45.00354" lon="4.52091">
        <ele>566</ele>
        <time>2015-10-29T08:27:53Z</time>
      </trkpt>
      <trkpt lat="45.00354" lon="4.52104">
        <ele>566</ele>
        <time>2015-10-29T08:27:59Z</time>
      </trkpt>
      <trkpt lat="45.00354" lon="4.52115">
        <ele>566</ele>
        <time>2015-10-29T08:28:04Z</time>
      </trkpt>
      <trkpt lat="45.00355" lon="4.52127">
        <ele>567</ele>
        <time>2015-10-29T08:28:10Z</time>
      </trkpt>
      <trkpt lat="45.00357" lon="4.52137">
        <ele>566</ele>
        <time>2015-10-29T08:28:15Z</time>
      </trkpt>
      <trkpt lat="45.00356" lon="4.52147">
        <ele>566</ele>
        <time>2015-10-29T08:28:20Z</time>
      </trkpt>
      <trkpt lat="45.00355" lon="4.52158">
        <ele>566</ele>
        <time>2015-10-29T08:28:26Z</time>
      </trkpt>
      <trkpt lat="45.00354" lon="4.52167">
        <ele>566</ele>
        <time>2015-10-29T08:28:32Z</time>
      </trkpt>
      <trkpt lat="45.00354" lon="4.52176">
        <ele>567</ele>
        <time>2015-10-29T08:28:35Z</time>
      </trkpt>
      <trkpt lat="45.00356" lon="4.52202">
        <ele>566</ele>
        <time>2015-10-29T08:28:49Z</time>
      </trkpt>
      <trkpt lat="45.00357" lon="4.52216">
        <ele>566</ele>
        <time>2015-10-29T08:28:56Z</time>
      </trkpt>
      <trkpt lat="45.00356" lon="4.52218">
        <ele>566</ele>
        <time>2015-10-29T08:29:34Z</time>
      </trkpt>
      <trkpt lat="45.00346" lon="4.52212">
        <ele>565</ele>
        <time>2015-10-29T08:29:37Z</time>
      </trkpt>
      <trkpt lat="45.0035" lon="4.5222">
        <ele>566</ele>
        <time>2015-10-29T08:29:50Z</time>
      </trkpt>
      <trkpt lat="45.00353" lon="4.52231">
        <ele>566</ele>
        <time>2015-10-29T08:29:55Z</time>
      </trkpt>
      <trkpt lat="45.00354" lon="4.5224">
        <ele>566</ele>
        <time>2015-10-29T08:29:58Z</time>
      </trkpt>
      <trkpt lat="45.00353" lon="4.5225">
        <ele>565</ele>
        <time>2015-10-29T08:30:02Z</time>
      </trkpt>
      <trkpt lat="45.00352" lon="4.52263">
        <ele>565</ele>
        <time>2015-10-29T08:30:07Z</time>
      </trkpt>
      <trkpt lat="45.00351" lon="4.52274">
        <ele>566</ele>
        <time>2015-10-29T08:30:12Z</time>
      </trkpt>
      <trkpt lat="45.00349" lon="4.52286">
        <ele>566</ele>
        <time>2015-10-29T08:30:19Z</time>
      </trkpt>
      <trkpt lat="45.00348" lon="4.52295">
        <ele>566</ele>
        <time>2015-10-29T08:30:23Z</time>
      </trkpt>
      <trkpt lat="45.00348" lon="4.52305">
        <ele>567</ele>
        <time>2015-10-29T08:30:28Z</time>
      </trkpt>
      <trkpt lat="45.00347" lon="4.52316">
        <ele>567</ele>
        <time>2015-10-29T08:30:32Z</time>
      </trkpt>
      <trkpt lat="45.00349" lon="4.52324">
        <ele>567</ele>
        <time>2015-10-29T08:30:36Z</time>
      </trkpt>
      <trkpt lat="45.00351" lon="4.52333">
        <ele>568</ele>
        <time>2015-10-29T08:30:41Z</time>
      </trkpt>
      <trkpt lat="45.00352" lon="4.52341">
        <ele>568</ele>
        <time>2015-10-29T08:30:46Z</time>
      </trkpt>
      <trkpt lat="45.00355" lon="4.5235">
        <ele>569</ele>
        <time>2015-10-29T08:30:50Z</time>
      </trkpt>
      <trkpt lat="45.00359" lon="4.52358">
        <ele>569</ele>
        <time>2015-10-29T08:30:54Z</time>
      </trkpt>
      <trkpt lat="45.00361" lon="4.52368">
        <ele>570</ele>
        <time>2015-10-29T08:31:00Z</time>
      </trkpt>
      <trkpt lat="45.00363" lon="4.52376">
        <ele>570</ele>
        <time>2015-10-29T08:31:03Z</time>
      </trkpt>
      <trkpt lat="45.00364" lon="4.52386">
        <ele>571</ele>
        <time>2015-10-29T08:31:09Z</time>
      </trkpt>
      <trkpt lat="45.00366" lon="4.52397">
        <ele>572</ele>
        <time>2015-10-29T08:31:15Z</time>
      </trkpt>
      <trkpt lat="45.00369" lon="4.52405">
        <ele>572</ele>
        <time>2015-10-29T08:31:21Z</time>
      </trkpt>
      <trkpt lat="45.00373" lon="4.52414">
        <ele>573</ele>
        <time>2015-10-29T08:31:25Z</time>
      </trkpt>
      <trkpt lat="45.00377" lon="4.52424">
        <ele>573</ele>
        <time>2015-10-29T08:31:30Z</time>
      </trkpt>
      <trkpt lat="45.00377" lon="4.52436">
        <ele>574</ele>
        <time>2015-10-29T08:31:36Z</time>
      </trkpt>
      <trkpt lat="45.00374" lon="4.52445">
        <ele>575</ele>
        <time>2015-10-29T08:31:53Z</time>
      </trkpt>
      <trkpt lat="45.00371" lon="4.52454">
        <ele>575</ele>
        <time>2015-10-29T08:31:55Z</time>
      </trkpt>
      <trkpt lat="45.00371" lon="4.5246">
        <ele>575</ele>
        <time>2015-10-29T08:32:00Z</time>
      </trkpt>
      <trkpt lat="45.00375" lon="4.52469">
        <ele>576</ele>
        <time>2015-10-29T08:32:05Z</time>
      </trkpt>
      <trkpt lat="45.00376" lon="4.52474">
        <ele>575</ele>
        <time>2015-10-29T08:32:10Z</time>
      </trkpt>
      <trkpt lat="45.00377" lon="4.52486">
        <ele>575</ele>
        <time>2015-10-29T08:32:15Z</time>
      </trkpt>
      <trkpt lat="45.00377" lon="4.52492">
        <ele>574</ele>
        <time>2015-10-29T08:32:36Z</time>
      </trkpt>
      <trkpt lat="45.00368" lon="4.52543">
        <ele>574</ele>
        <time>2015-10-29T08:32:41Z</time>
      </trkpt>
      <trkpt lat="45.00365" lon="4.52552">
        <ele>574</ele>
        <time>2015-10-29T08:32:46Z</time>
      </trkpt>
      <trkpt lat="45.00363" lon="4.52562">
        <ele>574</ele>
        <time>2015-10-29T08:32:51Z</time>
      </trkpt>
      <trkpt lat="45.0036" lon="4.52573">
        <ele>574</ele>
        <time>2015-10-29T08:32:58Z</time>
      </trkpt>
      <trkpt lat="45.00357" lon="4.52584">
        <ele>574</ele>
        <time>2015-10-29T08:33:06Z</time>
      </trkpt>
      <trkpt lat="45.00354" lon="4.52595">
        <ele>574</ele>
        <time>2015-10-29T08:33:12Z</time>
      </trkpt>
      <trkpt lat="45.00353" lon="4.52605">
        <ele>574</ele>
        <time>2015-10-29T08:33:17Z</time>
      </trkpt>
      <trkpt lat="45.00351" lon="4.52619">
        <ele>575</ele>
        <time>2015-10-29T08:33:22Z</time>
      </trkpt>
      <trkpt lat="45.00346" lon="4.52626">
        <ele>574</ele>
        <time>2015-10-29T08:33:26Z</time>
      </trkpt>
      <trkpt lat="45.00343" lon="4.52637">
        <ele>575</ele>
        <time>2015-10-29T08:33:34Z</time>
      </trkpt>
      <trkpt lat="45.0034" lon="4.52648">
        <ele>576</ele>
        <time>2015-10-29T08:33:40Z</time>
      </trkpt>
      <trkpt lat="45.00339" lon="4.52659">
        <ele>578</ele>
        <time>2015-10-29T08:33:53Z</time>
      </trkpt>
      <trkpt lat="45.00343" lon="4.52669">
        <ele>579</ele>
        <time>2015-10-29T08:34:10Z</time>
      </trkpt>
      <trkpt lat="45.00342" lon="4.5268">
        <ele>580</ele>
        <time>2015-10-29T08:34:18Z</time>
      </trkpt>
      <trkpt lat="45.00345" lon="4.52691">
        <ele>580</ele>
        <time>2015-10-29T08:34:26Z</time>
      </trkpt>
      <trkpt lat="45.00351" lon="4.52697">
        <ele>581</ele>
        <time>2015-10-29T08:34:34Z</time>
      </trkpt>
      <trkpt lat="45.00354" lon="4.52706">
        <ele>581</ele>
        <time>2015-10-29T08:34:38Z</time>
      </trkpt>
      <trkpt lat="45.00361" lon="4.52711">
        <ele>582</ele>
        <time>2015-10-29T08:34:46Z</time>
      </trkpt>
      <trkpt lat="45.00369" lon="4.52715">
        <ele>582</ele>
        <time>2015-10-29T08:34:51Z</time>
      </trkpt>
      <trkpt lat="45.00377" lon="4.52717">
        <ele>583</ele>
        <time>2015-10-29T08:34:57Z</time>
      </trkpt>
      <trkpt lat="45.00383" lon="4.5272">
        <ele>583</ele>
        <time>2015-10-29T08:35:04Z</time>
      </trkpt>
      <trkpt lat="45.0039" lon="4.5272">
        <ele>583</ele>
        <time>2015-10-29T08:35:10Z</time>
      </trkpt>
      <trkpt lat="45.004" lon="4.52721">
        <ele>583</ele>
        <time>2015-10-29T08:35:14Z</time>
      </trkpt>
      <trkpt lat="45.00406" lon="4.52723">
        <ele>583</ele>
        <time>2015-10-29T08:35:18Z</time>
      </trkpt>
      <trkpt lat="45.00413" lon="4.52726">
        <ele>583</ele>
        <time>2015-10-29T08:35:22Z</time>
      </trkpt>
      <trkpt lat="45.00417" lon="4.52733">
        <ele>583</ele>
        <time>2015-10-29T08:35:26Z</time>
      </trkpt>
      <trkpt lat="45.00424" lon="4.52739">
        <ele>583</ele>
        <time>2015-10-29T08:35:32Z</time>
      </trkpt>
      <trkpt lat="45.00428" lon="4.52745">
        <ele>583</ele>
        <time>2015-10-29T08:35:36Z</time>
      </trkpt>
      <trkpt lat="45.00433" lon="4.52752">
        <ele>582</ele>
        <time>2015-10-29T08:35:40Z</time>
      </trkpt>
      <trkpt lat="45.00437" lon="4.52759">
        <ele>582</ele>
        <time>2015-10-29T08:35:44Z</time>
      </trkpt>
      <trkpt lat="45.00441" lon="4.52767">
        <ele>582</ele>
        <time>2015-10-29T08:35:50Z</time>
      </trkpt>
      <trkpt lat="45.0045" lon="4.52768">
        <ele>582</ele>
        <time>2015-10-29T08:36:18Z</time>
      </trkpt>
      <trkpt lat="45.00451" lon="4.5278">
        <ele>582</ele>
        <time>2015-10-29T08:36:28Z</time>
      </trkpt>
      <trkpt lat="45.00453" lon="4.5279">
        <ele>582</ele>
        <time>2015-10-29T08:36:36Z</time>
      </trkpt>
      <trkpt lat="45.00456" lon="4.528">
        <ele>583</ele>
        <time>2015-10-29T08:36:42Z</time>
      </trkpt>
      <trkpt lat="45.00462" lon="4.52806">
        <ele>583</ele>
        <time>2015-10-29T08:36:49Z</time>
      </trkpt>
      <trkpt lat="45.00469" lon="4.52813">
        <ele>583</ele>
        <time>2015-10-29T08:36:56Z</time>
      </trkpt>
      <trkpt lat="45.00473" lon="4.52821">
        <ele>583</ele>
        <time>2015-10-29T08:37:14Z</time>
      </trkpt>
      <trkpt lat="45.00478" lon="4.52829">
        <ele>583</ele>
        <time>2015-10-29T08:37:19Z</time>
      </trkpt>
      <trkpt lat="45.00482" lon="4.52832">
        <ele>583</ele>
        <time>2015-10-29T08:37:40Z</time>
      </trkpt>
      <trkpt lat="45.00486" lon="4.52849">
        <ele>583</ele>
        <time>2015-10-29T08:37:44Z</time>
      </trkpt>
      <trkpt lat="45.00486" lon="4.52861">
        <ele>584</ele>
        <time>2015-10-29T08:37:48Z</time>
      </trkpt>
      <trkpt lat="45.0049" lon="4.52871">
        <ele>584</ele>
        <time>2015-10-29T08:37:56Z</time>
      </trkpt>
      <trkpt lat="45.00495" lon="4.5288">
        <ele>583</ele>
        <time>2015-10-29T08:38:05Z</time>
      </trkpt>
      <trkpt lat="45.00502" lon="4.52887">
        <ele>583</ele>
        <time>2015-10-29T08:38:13Z</time>
      </trkpt>
      <trkpt lat="45.00503" lon="4.52897">
        <ele>582</ele>
        <time>2015-10-29T08:38:20Z</time>
      </trkpt>
      <trkpt lat="45.00498" lon="4.52905">
        <ele>580</ele>
        <time>2015-10-29T08:38:32Z</time>
      </trkpt>
      <trkpt lat="45.00492" lon="4.5291">
        <ele>580</ele>
        <time>2015-10-29T08:38:36Z</time>
      </trkpt>
      <trkpt lat="45.00488" lon="4.52915">
        <ele>578</ele>
        <time>2015-10-29T08:38:40Z</time>
      </trkpt>
      <trkpt lat="45.00484" lon="4.52917">
        <ele>578</ele>
        <time>2015-10-29T08:38:50Z</time>
      </trkpt>
      <trkpt lat="45.00471" lon="4.52921">
        <ele>576</ele>
        <time>2015-10-29T08:38:52Z</time>
      </trkpt>
      <trkpt lat="45.00464" lon="4.52926">
        <ele>575</ele>
        <time>2015-10-29T08:39:00Z</time>
      </trkpt>
      <trkpt lat="45.00456" lon="4.52924">
        <ele>573</ele>
        <time>2015-10-29T08:39:02Z</time>
      </trkpt>
      <trkpt lat="45.00448" lon="4.52927">
        <ele>571</ele>
        <time>2015-10-29T08:39:08Z</time>
      </trkpt>
      <trkpt lat="45.00446" lon="4.52929">
        <ele>570</ele>
        <time>2015-10-29T08:39:10Z</time>
      </trkpt>
      <trkpt lat="45.00425" lon="4.52942">
        <ele>564</ele>
        <time>2015-10-29T08:39:26Z</time>
      </trkpt>
      <trkpt lat="45.00419" lon="4.52946">
        <ele>561</ele>
        <time>2015-10-29T08:39:30Z</time>
      </trkpt>
      <trkpt lat="45.0041" lon="4.5295">
        <ele>559</ele>
        <time>2015-10-29T08:39:37Z</time>
      </trkpt>
      <trkpt lat="45.00403" lon="4.52956">
        <ele>557</ele>
        <time>2015-10-29T08:39:43Z</time>
      </trkpt>
      <trkpt lat="45.00398" lon="4.5296">
        <ele>556</ele>
        <time>2015-10-29T08:39:46Z</time>
      </trkpt>
      <trkpt lat="45.00392" lon="4.52967">
        <ele>556</ele>
        <time>2015-10-29T08:39:50Z</time>
      </trkpt>
      <trkpt lat="45.00385" lon="4.52973">
        <ele>555</ele>
        <time>2015-10-29T08:39:55Z</time>
      </trkpt>
      <trkpt lat="45.00379" lon="4.52979">
        <ele>555</ele>
        <time>2015-10-29T08:40:00Z</time>
      </trkpt>
      <trkpt lat="45.00372" lon="4.52986">
        <ele>556</ele>
        <time>2015-10-29T08:40:06Z</time>
      </trkpt>
      <trkpt lat="45.00366" lon="4.52992">
        <ele>555</ele>
        <time>2015-10-29T08:40:14Z</time>
      </trkpt>
      <trkpt lat="45.00352" lon="4.53013">
        <ele>554</ele>
        <time>2015-10-29T08:40:36Z</time>
      </trkpt>
      <trkpt lat="45.00345" lon="4.53022">
        <ele>553</ele>
        <time>2015-10-29T08:40:41Z</time>
      </trkpt>
      <trkpt lat="45.0034" lon="4.53028">
        <ele>553</ele>
        <time>2015-10-29T08:40:44Z</time>
      </trkpt>
      <trkpt lat="45.00334" lon="4.53036">
        <ele>552</ele>
        <time>2015-10-29T08:40:51Z</time>
      </trkpt>
      <trkpt lat="45.00327" lon="4.53045">
        <ele>552</ele>
        <time>2015-10-29T08:40:58Z</time>
      </trkpt>
      <trkpt lat="45.00322" lon="4.53054">
        <ele>551</ele>
        <time>2015-10-29T08:41:06Z</time>
      </trkpt>
      <trkpt lat="45.00318" lon="4.53062">
        <ele>550</ele>
        <time>2015-10-29T08:41:10Z</time>
      </trkpt>
      <trkpt lat="45.00314" lon="4.53071">
        <ele>551</ele>
        <time>2015-10-29T08:41:16Z</time>
      </trkpt>
      <trkpt lat="45.0031" lon="4.53082">
        <ele>551</ele>
        <time>2015-10-29T08:41:20Z</time>
      </trkpt>
      <trkpt lat="45.00306" lon="4.53092">
        <ele>550</ele>
        <time>2015-10-29T08:41:25Z</time>
      </trkpt>
      <trkpt lat="45.00299" lon="4.53097">
        <ele>549</ele>
        <time>2015-10-29T08:41:30Z</time>
      </trkpt>
      <trkpt lat="45.00295" lon="4.53108">
        <ele>548</ele>
        <time>2015-10-29T08:41:38Z</time>
      </trkpt>
      <trkpt lat="45.00291" lon="4.53117">
        <ele>547</ele>
        <time>2015-10-29T08:41:44Z</time>
      </trkpt>
      <trkpt lat="45.00285" lon="4.53125">
        <ele>545</ele>
        <time>2015-10-29T08:41:50Z</time>
      </trkpt>
      <trkpt lat="45.00281" lon="4.53135">
        <ele>545</ele>
        <time>2015-10-29T08:41:56Z</time>
      </trkpt>
      <trkpt lat="45.00277" lon="4.53141">
        <ele>544</ele>
        <time>2015-10-29T08:42:00Z</time>
      </trkpt>
      <trkpt lat="45.00276" lon="4.53152">
        <ele>543</ele>
        <time>2015-10-29T08:42:06Z</time>
      </trkpt>
      <trkpt lat="45.00275" lon="4.53164">
        <ele>542</ele>
        <time>2015-10-29T08:42:11Z</time>
      </trkpt>
      <trkpt lat="45.00274" lon="4.53172">
        <ele>541</ele>
        <time>2015-10-29T08:42:15Z</time>
      </trkpt>
      <trkpt lat="45.00274" lon="4.53179">
        <ele>540</ele>
        <time>2015-10-29T08:42:18Z</time>
      </trkpt>
      <trkpt lat="45.00274" lon="4.5319">
        <ele>538</ele>
        <time>2015-10-29T08:42:22Z</time>
      </trkpt>
      <trkpt lat="45.00273" lon="4.53194">
        <ele>538</ele>
        <time>2015-10-29T08:42:24Z</time>
      </trkpt>
      <trkpt lat="45.0027" lon="4.53206">
        <ele>537</ele>
        <time>2015-10-29T08:42:31Z</time>
      </trkpt>
      <trkpt lat="45.00267" lon="4.53215">
        <ele>536</ele>
        <time>2015-10-29T08:42:36Z</time>
      </trkpt>
      <trkpt lat="45.00266" lon="4.53227">
        <ele>535</ele>
        <time>2015-10-29T08:42:44Z</time>
      </trkpt>
      <trkpt lat="45.00265" lon="4.53238">
        <ele>535</ele>
        <time>2015-10-29T08:42:50Z</time>
      </trkpt>
      <trkpt lat="45.00263" lon="4.53246">
        <ele>535</ele>
        <time>2015-10-29T08:42:53Z</time>
      </trkpt>
      <trkpt lat="45.00261" lon="4.53259">
        <ele>537</ele>
        <time>2015-10-29T08:42:57Z</time>
      </trkpt>
      <trkpt lat="45.0026" lon="4.5326">
        <ele>537</ele>
        <time>2015-10-29T08:43:31Z</time>
      </trkpt>
      <trkpt lat="45.0026" lon="4.53272">
        <ele>539</ele>
        <time>2015-10-29T08:43:36Z</time>
      </trkpt>
      <trkpt lat="45.00261" lon="4.53283">
        <ele>538</ele>
        <time>2015-10-29T08:43:44Z</time>
      </trkpt>
      <trkpt lat="45.00262" lon="4.53288">
        <ele>538</ele>
        <time>2015-10-29T08:43:48Z</time>
      </trkpt>
      <trkpt lat="45.00262" lon="4.53299">
        <ele>538</ele>
        <time>2015-10-29T08:43:54Z</time>
      </trkpt>
      <trkpt lat="45.00262" lon="4.53312">
        <ele>538</ele>
        <time>2015-10-29T08:43:58Z</time>
      </trkpt>
      <trkpt lat="45.00262" lon="4.5332">
        <ele>538</ele>
        <time>2015-10-29T08:44:01Z</time>
      </trkpt>
      <trkpt lat="45.00263" lon="4.53331">
        <ele>537</ele>
        <time>2015-10-29T08:44:07Z</time>
      </trkpt>
      <trkpt lat="45.00261" lon="4.53343">
        <ele>537</ele>
        <time>2015-10-29T08:44:12Z</time>
      </trkpt>
      <trkpt lat="45.00264" lon="4.53353">
        <ele>537</ele>
        <time>2015-10-29T08:44:15Z</time>
      </trkpt>
      <trkpt lat="45.00261" lon="4.53363">
        <ele>537</ele>
        <time>2015-10-29T08:44:19Z</time>
      </trkpt>
      <trkpt lat="45.00253" lon="4.53384">
        <ele>536</ele>
        <time>2015-10-29T08:44:29Z</time>
      </trkpt>
      <trkpt lat="45.0025" lon="4.5339">
        <ele>536</ele>
        <time>2015-10-29T08:44:30Z</time>
      </trkpt>
      <trkpt lat="45.00242" lon="4.53402">
        <ele>536</ele>
        <time>2015-10-29T08:44:36Z</time>
      </trkpt>
      <trkpt lat="45.00236" lon="4.5341">
        <ele>536</ele>
        <time>2015-10-29T08:44:42Z</time>
      </trkpt>
      <trkpt lat="45.00232" lon="4.5342">
        <ele>536</ele>
        <time>2015-10-29T08:44:49Z</time>
      </trkpt>
      <trkpt lat="45.00228" lon="4.53429">
        <ele>536</ele>
        <time>2015-10-29T08:44:56Z</time>
      </trkpt>
      <trkpt lat="45.00223" lon="4.53438">
        <ele>535</ele>
        <time>2015-10-29T08:45:04Z</time>
      </trkpt>
      <trkpt lat="45.00218" lon="4.53448">
        <ele>535</ele>
        <time>2015-10-29T08:45:13Z</time>
      </trkpt>
      <trkpt lat="45.00214" lon="4.53458">
        <ele>535</ele>
        <time>2015-10-29T08:45:19Z</time>
      </trkpt>
      <trkpt lat="45.00209" lon="4.53464">
        <ele>535</ele>
        <time>2015-10-29T08:45:24Z</time>
      </trkpt>
      <trkpt lat="45.00206" lon="4.5347">
        <ele>534</ele>
        <time>2015-10-29T08:45:28Z</time>
      </trkpt>
      <trkpt lat="45.00199" lon="4.53479">
        <ele>535</ele>
        <time>2015-10-29T08:45:33Z</time>
      </trkpt>
      <trkpt lat="45.00192" lon="4.53482">
        <ele>535</ele>
        <time>2015-10-29T08:45:39Z</time>
      </trkpt>
      <trkpt lat="45.00183" lon="4.53481">
        <ele>535</ele>
        <time>2015-10-29T08:45:45Z</time>
      </trkpt>
      <trkpt lat="45.00177" lon="4.53476">
        <ele>535</ele>
        <time>2015-10-29T08:45:52Z</time>
      </trkpt>
      <trkpt lat="45.00168" lon="4.53479">
        <ele>535</ele>
        <time>2015-10-29T08:45:59Z</time>
      </trkpt>
      <trkpt lat="45.0016" lon="4.53482">
        <ele>535</ele>
        <time>2015-10-29T08:46:04Z</time>
      </trkpt>
      <trkpt lat="45.00153" lon="4.53484">
        <ele>535</ele>
        <time>2015-10-29T08:46:09Z</time>
      </trkpt>
      <trkpt lat="45.00145" lon="4.53488">
        <ele>536</ele>
        <time>2015-10-29T08:46:15Z</time>
      </trkpt>
      <trkpt lat="45.00138" lon="4.53491">
        <ele>536</ele>
        <time>2015-10-29T08:46:20Z</time>
      </trkpt>
      <trkpt lat="45.00133" lon="4.53495">
        <ele>537</ele>
        <time>2015-10-29T08:46:23Z</time>
      </trkpt>
      <trkpt lat="45.00125" lon="4.53496">
        <ele>538</ele>
        <time>2015-10-29T08:46:35Z</time>
      </trkpt>
      <trkpt lat="45.00113" lon="4.53507">
        <ele>538</ele>
        <time>2015-10-29T08:46:39Z</time>
      </trkpt>
      <trkpt lat="45.00112" lon="4.53509">
        <ele>538</ele>
        <time>2015-10-29T08:46:45Z</time>
      </trkpt>
      <trkpt lat="45.001" lon="4.53524">
        <ele>538</ele>
        <time>2015-10-29T08:46:49Z</time>
      </trkpt>
      <trkpt lat="45.00094" lon="4.5353">
        <ele>538</ele>
        <time>2015-10-29T08:46:53Z</time>
      </trkpt>
      <trkpt lat="45.00087" lon="4.53537">
        <ele>539</ele>
        <time>2015-10-29T08:46:59Z</time>
      </trkpt>
      <trkpt lat="45.00082" lon="4.53542">
        <ele>539</ele>
        <time>2015-10-29T08:47:03Z</time>
      </trkpt>
      <trkpt lat="45.00076" lon="4.5355">
        <ele>539</ele>
        <time>2015-10-29T08:47:09Z</time>
      </trkpt>
      <trkpt lat="45.00072" lon="4.53556">
        <ele>540</ele>
        <time>2015-10-29T08:47:13Z</time>
      </trkpt>
      <trkpt lat="45.00065" lon="4.53561">
        <ele>540</ele>
        <time>2015-10-29T08:47:17Z</time>
      </trkpt>
      <trkpt lat="45.00062" lon="4.53568">
        <ele>541</ele>
        <time>2015-10-29T08:47:22Z</time>
      </trkpt>
      <trkpt lat="45.00055" lon="4.53575">
        <ele>541</ele>
        <time>2015-10-29T08:47:28Z</time>
      </trkpt>
      <trkpt lat="45.00048" lon="4.53581">
        <ele>541</ele>
        <time>2015-10-29T08:47:35Z</time>
      </trkpt>
      <trkpt lat="45.00042" lon="4.53588">
        <ele>541</ele>
        <time>2015-10-29T08:47:40Z</time>
      </trkpt>
      <trkpt lat="45.00037" lon="4.53596">
        <ele>541</ele>
        <time>2015-10-29T08:47:46Z</time>
      </trkpt>
      <trkpt lat="45.00033" lon="4.53606">
        <ele>541</ele>
        <time>2015-10-29T08:47:52Z</time>
      </trkpt>
      <trkpt lat="45.00027" lon="4.53613">
        <ele>541</ele>
        <time>2015-10-29T08:47:57Z</time>
      </trkpt>
      <trkpt lat="45.00021" lon="4.53618">
        <ele>541</ele>
        <time>2015-10-29T08:48:01Z</time>
      </trkpt>
      <trkpt lat="45.00017" lon="4.53628">
        <ele>538</ele>
        <time>2015-10-29T08:48:45Z</time>
      </trkpt>
      <trkpt lat="45.00022" lon="4.53639">
        <ele>538</ele>
        <time>2015-10-29T08:48:50Z</time>
      </trkpt>
      <trkpt lat="45.00026" lon="4.53643">
        <ele>538</ele>
        <time>2015-10-29T08:48:54Z</time>
      </trkpt>
      <trkpt lat="45.00032" lon="4.53648">
        <ele>537</ele>
        <time>2015-10-29T08:49:00Z</time>
      </trkpt>
      <trkpt lat="45.0004" lon="4.53653">
        <ele>536</ele>
        <time>2015-10-29T08:49:09Z</time>
      </trkpt>
      <trkpt lat="45.00048" lon="4.53655">
        <ele>535</ele>
        <time>2015-10-29T08:49:14Z</time>
      </trkpt>
      <trkpt lat="45.00054" lon="4.53662">
        <ele>534</ele>
        <time>2015-10-29T08:49:19Z</time>
      </trkpt>
      <trkpt lat="45.00061" lon="4.53662">
        <ele>534</ele>
        <time>2015-10-29T08:49:23Z</time>
      </trkpt>
      <trkpt lat="45.00069" lon="4.53667">
        <ele>533</ele>
        <time>2015-10-29T08:49:28Z</time>
      </trkpt>
      <trkpt lat="45.00076" lon="4.53671">
        <ele>533</ele>
        <time>2015-10-29T08:49:34Z</time>
      </trkpt>
      <trkpt lat="45.00084" lon="4.53676">
        <ele>533</ele>
        <time>2015-10-29T08:49:39Z</time>
      </trkpt>
      <trkpt lat="45.00089" lon="4.5368">
        <ele>533</ele>
        <time>2015-10-29T08:49:41Z</time>
      </trkpt>
      <trkpt lat="45.00096" lon="4.53686">
        <ele>533</ele>
        <time>2015-10-29T08:49:45Z</time>
      </trkpt>
      <trkpt lat="45.00098" lon="4.53695">
        <ele>532</ele>
        <time>2015-10-29T08:49:49Z</time>
      </trkpt>
      <trkpt lat="45.00103" lon="4.53702">
        <ele>532</ele>
        <time>2015-10-29T08:49:54Z</time>
      </trkpt>
      <trkpt lat="45.00105" lon="4.53705">
        <ele>532</ele>
        <time>2015-10-29T08:49:56Z</time>
      </trkpt>
      <trkpt lat="45.0011" lon="4.53713">
        <ele>531</ele>
        <time>2015-10-29T08:50:00Z</time>
      </trkpt>
      <trkpt lat="45.00116" lon="4.53722">
        <ele>531</ele>
        <time>2015-10-29T08:50:07Z</time>
      </trkpt>
      <trkpt lat="45.00118" lon="4.53731">
        <ele>531</ele>
        <time>2015-10-29T08:50:12Z</time>
      </trkpt>
      <trkpt lat="45.0012" lon="4.53739">
        <ele>531</ele>
        <time>2015-10-29T08:50:16Z</time>
      </trkpt>
      <trkpt lat="45.00125" lon="4.5375">
        <ele>531</ele>
        <time>2015-10-29T08:50:21Z</time>
      </trkpt>
      <trkpt lat="45.00129" lon="4.53754">
        <ele>531</ele>
        <time>2015-10-29T08:50:32Z</time>
      </trkpt>
      <trkpt lat="45.00137" lon="4.53772">
        <ele>530</ele>
        <time>2015-10-29T08:50:37Z</time>
      </trkpt>
      <trkpt lat="45.0014" lon="4.53781">
        <ele>530</ele>
        <time>2015-10-29T08:50:44Z</time>
      </trkpt>
      <trkpt lat="45.00145" lon="4.53791">
        <ele>529</ele>
        <time>2015-10-29T08:50:52Z</time>
      </trkpt>
      <trkpt lat="45.00146" lon="4.53797">
        <ele>528</ele>
        <time>2015-10-29T08:50:55Z</time>
      </trkpt>
      <trkpt lat="45.00153" lon="4.53812">
        <ele>528</ele>
        <time>2015-10-29T08:50:59Z</time>
      </trkpt>
      <trkpt lat="45.00147" lon="4.53819">
        <ele>529</ele>
        <time>2015-10-29T08:51:05Z</time>
      </trkpt>
      <trkpt lat="45.0014" lon="4.53823">
        <ele>529</ele>
        <time>2015-10-29T08:51:10Z</time>
      </trkpt>
      <trkpt lat="45.00138" lon="4.53835">
        <ele>532</ele>
        <time>2015-10-29T08:51:13Z</time>
      </trkpt>
      <trkpt lat="45.00134" lon="4.53838">
        <ele>534</ele>
        <time>2015-10-29T08:51:17Z</time>
      </trkpt>
      <trkpt lat="45.00127" lon="4.53835">
        <ele>535</ele>
        <time>2015-10-29T08:51:33Z</time>
      </trkpt>
      <trkpt lat="45.00099" lon="4.53843">
        <ele>543</ele>
        <time>2015-10-29T08:51:38Z</time>
      </trkpt>
      <trkpt lat="45.00092" lon="4.53848">
        <ele>544</ele>
        <time>2015-10-29T08:51:43Z</time>
      </trkpt>
      <trkpt lat="45.0008" lon="4.53849">
        <ele>546</ele>
        <time>2015-10-29T08:51:53Z</time>
      </trkpt>
      <trkpt lat="45.00074" lon="4.53849">
        <ele>547</ele>
        <time>2015-10-29T08:51:56Z</time>
      </trkpt>
      <trkpt lat="45.00067" lon="4.5385">
        <ele>548</ele>
        <time>2015-10-29T08:52:05Z</time>
      </trkpt>
      <trkpt lat="45.00056" lon="4.53854">
        <ele>548</ele>
        <time>2015-10-29T08:52:09Z</time>
      </trkpt>
      <trkpt lat="45.0005" lon="4.53857">
        <ele>548</ele>
        <time>2015-10-29T08:52:14Z</time>
      </trkpt>
      <trkpt lat="45.00043" lon="4.53859">
        <ele>548</ele>
        <time>2015-10-29T08:52:19Z</time>
      </trkpt>
      <trkpt lat="45.00038" lon="4.53863">
        <ele>548</ele>
        <time>2015-10-29T08:52:24Z</time>
      </trkpt>
      <trkpt lat="45.00032" lon="4.53868">
        <ele>548</ele>
        <time>2015-10-29T08:52:29Z</time>
      </trkpt>
      <trkpt lat="45.00025" lon="4.5387">
        <ele>548</ele>
        <time>2015-10-29T08:52:33Z</time>
      </trkpt>
      <trkpt lat="45.00017" lon="4.53875">
        <ele>548</ele>
        <time>2015-10-29T08:52:38Z</time>
      </trkpt>
      <trkpt lat="45.00011" lon="4.53879">
        <ele>549</ele>
        <time>2015-10-29T08:52:42Z</time>
      </trkpt>
      <trkpt lat="45.00003" lon="4.53884">
        <ele>549</ele>
        <time>2015-10-29T08:52:47Z</time>
      </trkpt>
      <trkpt lat="44.99998" lon="4.5389">
        <ele>550</ele>
        <time>2015-10-29T08:52:51Z</time>
      </trkpt>
      <trkpt lat="44.99989" lon="4.53892">
        <ele>550</ele>
        <time>2015-10-29T08:52:58Z</time>
      </trkpt>
      <trkpt lat="44.99986" lon="4.53894">
        <ele>551</ele>
        <time>2015-10-29T08:53:00Z</time>
      </trkpt>
      <trkpt lat="44.99975" lon="4.53905">
        <ele>552</ele>
        <time>2015-10-29T08:53:10Z</time>
      </trkpt>
      <trkpt lat="44.9997" lon="4.53912">
        <ele>552</ele>
        <time>2015-10-29T08:53:16Z</time>
      </trkpt>
      <trkpt lat="44.99962" lon="4.53921">
        <ele>552</ele>
        <time>2015-10-29T08:53:20Z</time>
      </trkpt>
      <trkpt lat="44.99956" lon="4.53927">
        <ele>553</ele>
        <time>2015-10-29T08:53:24Z</time>
      </trkpt>
      <trkpt lat="44.9995" lon="4.53931">
        <ele>554</ele>
        <time>2015-10-29T08:53:28Z</time>
      </trkpt>
      <trkpt lat="44.99943" lon="4.53938">
        <ele>555</ele>
        <time>2015-10-29T08:53:33Z</time>
      </trkpt>
      <trkpt lat="44.99936" lon="4.53943">
        <ele>557</ele>
        <time>2015-10-29T08:53:38Z</time>
      </trkpt>
      <trkpt lat="44.99928" lon="4.53945">
        <ele>558</ele>
        <time>2015-10-29T08:53:43Z</time>
      </trkpt>
      <trkpt lat="44.99922" lon="4.5395">
        <ele>559</ele>
        <time>2015-10-29T08:53:50Z</time>
      </trkpt>
      <trkpt lat="44.99917" lon="4.5396">
        <ele>561</ele>
        <time>2015-10-29T08:53:55Z</time>
      </trkpt>
      <trkpt lat="44.99913" lon="4.53965">
        <ele>562</ele>
        <time>2015-10-29T08:53:59Z</time>
      </trkpt>
      <trkpt lat="44.99907" lon="4.53972">
        <ele>562</ele>
        <time>2015-10-29T08:54:03Z</time>
      </trkpt>
      <trkpt lat="44.999" lon="4.53977">
        <ele>563</ele>
        <time>2015-10-29T08:54:07Z</time>
      </trkpt>
      <trkpt lat="44.99894" lon="4.53984">
        <ele>564</ele>
        <time>2015-10-29T08:54:14Z</time>
      </trkpt>
      <trkpt lat="44.9989" lon="4.53993">
        <ele>566</ele>
        <time>2015-10-29T08:54:20Z</time>
      </trkpt>
      <trkpt lat="44.99884" lon="4.54002">
        <ele>567</ele>
        <time>2015-10-29T08:54:26Z</time>
      </trkpt>
      <trkpt lat="44.99876" lon="4.54007">
        <ele>567</ele>
        <time>2015-10-29T08:54:32Z</time>
      </trkpt>
      <trkpt lat="44.99871" lon="4.54015">
        <ele>568</ele>
        <time>2015-10-29T08:54:37Z</time>
      </trkpt>
      <trkpt lat="44.99865" lon="4.54019">
        <ele>569</ele>
        <time>2015-10-29T08:54:41Z</time>
      </trkpt>
      <trkpt lat="44.99858" lon="4.54024">
        <ele>569</ele>
        <time>2015-10-29T08:54:46Z</time>
      </trkpt>
      <trkpt lat="44.99852" lon="4.5403">
        <ele>570</ele>
        <time>2015-10-29T08:54:52Z</time>
      </trkpt>
      <trkpt lat="44.99845" lon="4.54033">
        <ele>570</ele>
        <time>2015-10-29T08:54:58Z</time>
      </trkpt>
      <trkpt lat="44.99838" lon="4.54039">
        <ele>570</ele>
        <time>2015-10-29T08:55:03Z</time>
      </trkpt>
      <trkpt lat="44.9983" lon="4.54044">
        <ele>571</ele>
        <time>2015-10-29T08:55:09Z</time>
      </trkpt>
      <trkpt lat="44.99822" lon="4.5405">
        <ele>571</ele>
        <time>2015-10-29T08:55:16Z</time>
      </trkpt>
      <trkpt lat="44.99815" lon="4.54054">
        <ele>571</ele>
        <time>2015-10-29T08:55:22Z</time>
      </trkpt>
      <trkpt lat="44.99807" lon="4.54058">
        <ele>572</ele>
        <time>2015-10-29T08:55:27Z</time>
      </trkpt>
      <trkpt lat="44.99799" lon="4.54054">
        <ele>573</ele>
        <time>2015-10-29T08:55:31Z</time>
      </trkpt>
      <trkpt lat="44.99791" lon="4.54059">
        <ele>573</ele>
        <time>2015-10-29T08:55:38Z</time>
      </trkpt>
      <trkpt lat="44.99785" lon="4.54066">
        <ele>573</ele>
        <time>2015-10-29T08:55:42Z</time>
      </trkpt>
      <trkpt lat="44.99779" lon="4.54074">
        <ele>573</ele>
        <time>2015-10-29T08:55:48Z</time>
      </trkpt>
      <trkpt lat="44.99775" lon="4.54081">
        <ele>573</ele>
        <time>2015-10-29T08:55:53Z</time>
      </trkpt>
      <trkpt lat="44.9977" lon="4.54091">
        <ele>573</ele>
        <time>2015-10-29T08:56:00Z</time>
      </trkpt>
      <trkpt lat="44.99768" lon="4.54095">
        <ele>573</ele>
        <time>2015-10-29T08:56:02Z</time>
      </trkpt>
      <trkpt lat="44.99765" lon="4.54102">
        <ele>573</ele>
        <time>2015-10-29T08:56:10Z</time>
      </trkpt>
      <trkpt lat="44.99762" lon="4.54112">
        <ele>573</ele>
        <time>2015-10-29T08:56:12Z</time>
      </trkpt>
      <trkpt lat="44.99762" lon="4.54116">
        <ele>573</ele>
        <time>2015-10-29T08:56:17Z</time>
      </trkpt>
      <trkpt lat="44.99758" lon="4.54128">
        <ele>571</ele>
        <time>2015-10-29T08:56:24Z</time>
      </trkpt>
      <trkpt lat="44.99759" lon="4.54136">
        <ele>570</ele>
        <time>2015-10-29T08:56:31Z</time>
      </trkpt>
      <trkpt lat="44.99759" lon="4.54149">
        <ele>569</ele>
        <time>2015-10-29T08:56:36Z</time>
      </trkpt>
      <trkpt lat="44.99755" lon="4.54157">
        <ele>568</ele>
        <time>2015-10-29T08:56:42Z</time>
      </trkpt>
      <trkpt lat="44.9975" lon="4.54167">
        <ele>567</ele>
        <time>2015-10-29T08:56:56Z</time>
      </trkpt>
      <trkpt lat="44.9975" lon="4.54178">
        <ele>564</ele>
        <time>2015-10-29T08:57:11Z</time>
      </trkpt>
      <trkpt lat="44.99748" lon="4.54188">
        <ele>564</ele>
        <time>2015-10-29T08:57:17Z</time>
      </trkpt>
      <trkpt lat="44.99747" lon="4.54191">
        <ele>563</ele>
        <time>2015-10-29T08:57:29Z</time>
      </trkpt>
      <trkpt lat="44.9973" lon="4.5421">
        <ele>566</ele>
        <time>2015-10-29T08:57:29Z</time>
      </trkpt>
      <trkpt lat="44.99725" lon="4.5421">
        <ele>566</ele>
        <time>2015-10-29T08:57:37Z</time>
      </trkpt>
      <trkpt lat="44.9971" lon="4.54213">
        <ele>565</ele>
        <time>2015-10-29T08:57:42Z</time>
      </trkpt>
      <trkpt lat="44.99705" lon="4.54213">
        <ele>564</ele>
        <time>2015-10-29T08:57:46Z</time>
      </trkpt>
      <trkpt lat="44.997" lon="4.54214">
        <ele>564</ele>
        <time>2015-10-29T08:57:49Z</time>
      </trkpt>
      <trkpt lat="44.99693" lon="4.54214">
        <ele>563</ele>
        <time>2015-10-29T08:57:55Z</time>
      </trkpt>
      <trkpt lat="44.99687" lon="4.54223">
        <ele>563</ele>
        <time>2015-10-29T08:58:02Z</time>
      </trkpt>
      <trkpt lat="44.99683" lon="4.54233">
        <ele>562</ele>
        <time>2015-10-29T08:58:08Z</time>
      </trkpt>
      <trkpt lat="44.9968" lon="4.54242">
        <ele>561</ele>
        <time>2015-10-29T08:58:12Z</time>
      </trkpt>
      <trkpt lat="44.99675" lon="4.54251">
        <ele>561</ele>
        <time>2015-10-29T08:58:16Z</time>
      </trkpt>
      <trkpt lat="44.9967" lon="4.54258">
        <ele>561</ele>
        <time>2015-10-29T08:58:20Z</time>
      </trkpt>
      <trkpt lat="44.99663" lon="4.54263">
        <ele>561</ele>
        <time>2015-10-29T08:58:26Z</time>
      </trkpt>
      <trkpt lat="44.99657" lon="4.54267">
        <ele>560</ele>
        <time>2015-10-29T08:58:32Z</time>
      </trkpt>
      <trkpt lat="44.99651" lon="4.54274">
        <ele>560</ele>
        <time>2015-10-29T08:58:37Z</time>
      </trkpt>
      <trkpt lat="44.99646" lon="4.54275">
        <ele>560</ele>
        <time>2015-10-29T08:58:41Z</time>
      </trkpt>
      <trkpt lat="44.99638" lon="4.5428">
        <ele>560</ele>
        <time>2015-10-29T08:58:46Z</time>
      </trkpt>
      <trkpt lat="44.99632" lon="4.54286">
        <ele>560</ele>
        <time>2015-10-29T08:58:50Z</time>
      </trkpt>
      <trkpt lat="44.99626" lon="4.54293">
        <ele>560</ele>
        <time>2015-10-29T08:58:55Z</time>
      </trkpt>
      <trkpt lat="44.9962" lon="4.54302">
        <ele>560</ele>
        <time>2015-10-29T08:59:00Z</time>
      </trkpt>
      <trkpt lat="44.99615" lon="4.54308">
        <ele>560</ele>
        <time>2015-10-29T08:59:04Z</time>
      </trkpt>
      <trkpt lat="44.9961" lon="4.54313">
        <ele>560</ele>
        <time>2015-10-29T08:59:08Z</time>
      </trkpt>
      <trkpt lat="44.99605" lon="4.54325">
        <ele>561</ele>
        <time>2015-10-29T08:59:12Z</time>
      </trkpt>
      <trkpt lat="44.99597" lon="4.54323">
        <ele>561</ele>
        <time>2015-10-29T08:59:18Z</time>
      </trkpt>
      <trkpt lat="44.99591" lon="4.54323">
        <ele>561</ele>
        <time>2015-10-29T08:59:24Z</time>
      </trkpt>
      <trkpt lat="44.99585" lon="4.54318">
        <ele>560</ele>
        <time>2015-10-29T08:59:28Z</time>
      </trkpt>
      <trkpt lat="44.99582" lon="4.5431">
        <ele>559</ele>
        <time>2015-10-29T08:59:32Z</time>
      </trkpt>
      <trkpt lat="44.99579" lon="4.543">
        <ele>558</ele>
        <time>2015-10-29T08:59:37Z</time>
      </trkpt>
      <trkpt lat="44.9958" lon="4.54288">
        <ele>557</ele>
        <time>2015-10-29T08:59:44Z</time>
      </trkpt>
      <trkpt lat="44.99581" lon="4.54276">
        <ele>555</ele>
        <time>2015-10-29T08:59:50Z</time>
      </trkpt>
      <trkpt lat="44.99584" lon="4.54268">
        <ele>554</ele>
        <time>2015-10-29T08:59:55Z</time>
      </trkpt>
      <trkpt lat="44.99588" lon="4.54261">
        <ele>553</ele>
        <time>2015-10-29T09:00:01Z</time>
      </trkpt>
      <trkpt lat="44.9959" lon="4.54253">
        <ele>552</ele>
        <time>2015-10-29T09:00:06Z</time>
      </trkpt>
      <trkpt lat="44.99589" lon="4.54242">
        <ele>550</ele>
        <time>2015-10-29T09:00:10Z</time>
      </trkpt>
      <trkpt lat="44.99589" lon="4.54233">
        <ele>549</ele>
        <time>2015-10-29T09:00:14Z</time>
      </trkpt>
      <trkpt lat="44.99593" lon="4.54222">
        <ele>547</ele>
        <time>2015-10-29T09:00:20Z</time>
      </trkpt>
      <trkpt lat="44.99592" lon="4.54212">
        <ele>545</ele>
        <time>2015-10-29T09:00:26Z</time>
      </trkpt>
      <trkpt lat="44.99593" lon="4.54201">
        <ele>544</ele>
        <time>2015-10-29T09:00:32Z</time>
      </trkpt>
      <trkpt lat="44.99593" lon="4.54194">
        <ele>543</ele>
        <time>2015-10-29T09:00:41Z</time>
      </trkpt>
      <trkpt lat="44.99592" lon="4.54179">
        <ele>541</ele>
        <time>2015-10-29T09:00:46Z</time>
      </trkpt>
      <trkpt lat="44.99597" lon="4.5417">
        <ele>541</ele>
        <time>2015-10-29T09:00:52Z</time>
      </trkpt>
      <trkpt lat="44.99597" lon="4.5416">
        <ele>542</ele>
        <time>2015-10-29T09:01:10Z</time>
      </trkpt>
      <trkpt lat="44.99589" lon="4.54146">
        <ele>542</ele>
        <time>2015-10-29T09:01:14Z</time>
      </trkpt>
      <trkpt lat="44.99593" lon="4.54137">
        <ele>543</ele>
        <time>2015-10-29T09:01:24Z</time>
      </trkpt>
      <trkpt lat="44.99596" lon="4.54128">
        <ele>543</ele>
        <time>2015-10-29T09:01:31Z</time>
      </trkpt>
      <trkpt lat="44.996" lon="4.5412">
        <ele>541</ele>
        <time>2015-10-29T09:01:37Z</time>
      </trkpt>
      <trkpt lat="44.99606" lon="4.54115">
        <ele>539</ele>
        <time>2015-10-29T09:01:41Z</time>
      </trkpt>
      <trkpt lat="44.99612" lon="4.5411">
        <ele>537</ele>
        <time>2015-10-29T09:01:48Z</time>
      </trkpt>
      <trkpt lat="44.99614" lon="4.541">
        <ele>535</ele>
        <time>2015-10-29T09:01:54Z</time>
      </trkpt>
      <trkpt lat="44.99614" lon="4.54082">
        <ele>536</ele>
        <time>2015-10-29T09:01:59Z</time>
      </trkpt>
      <trkpt lat="44.99607" lon="4.54087">
        <ele>534</ele>
        <time>2015-10-29T09:02:07Z</time>
      </trkpt>
      <trkpt lat="44.996" lon="4.54093">
        <ele>533</ele>
        <time>2015-10-29T09:02:15Z</time>
      </trkpt>
      <trkpt lat="44.99591" lon="4.54094">
        <ele>533</ele>
        <time>2015-10-29T09:02:22Z</time>
      </trkpt>
      <trkpt lat="44.99583" lon="4.54093">
        <ele>533</ele>
        <time>2015-10-29T09:02:28Z</time>
      </trkpt>
      <trkpt lat="44.99575" lon="4.54094">
        <ele>532</ele>
        <time>2015-10-29T09:02:34Z</time>
      </trkpt>
      <trkpt lat="44.99568" lon="4.54092">
        <ele>532</ele>
        <time>2015-10-29T09:02:38Z</time>
      </trkpt>
      <trkpt lat="44.99561" lon="4.54092">
        <ele>531</ele>
        <time>2015-10-29T09:02:42Z</time>
      </trkpt>
      <trkpt lat="44.99554" lon="4.54095">
        <ele>530</ele>
        <time>2015-10-29T09:02:48Z</time>
      </trkpt>
      <trkpt lat="44.99549" lon="4.54097">
        <ele>530</ele>
        <time>2015-10-29T09:02:54Z</time>
      </trkpt>
      <trkpt lat="44.99543" lon="4.54101">
        <ele>529</ele>
        <time>2015-10-29T09:02:58Z</time>
      </trkpt>
      <trkpt lat="44.99536" lon="4.54109">
        <ele>528</ele>
        <time>2015-10-29T09:03:03Z</time>
      </trkpt>
      <trkpt lat="44.9953" lon="4.5411">
        <ele>527</ele>
        <time>2015-10-29T09:03:07Z</time>
      </trkpt>
      <trkpt lat="44.99523" lon="4.54107">
        <ele>526</ele>
        <time>2015-10-29T09:03:11Z</time>
      </trkpt>
      <trkpt lat="44.99512" lon="4.54102">
        <ele>526</ele>
        <time>2015-10-29T09:03:16Z</time>
      </trkpt>
      <trkpt lat="44.99505" lon="4.54097">
        <ele>525</ele>
        <time>2015-10-29T09:03:20Z</time>
      </trkpt>
      <trkpt lat="44.99488" lon="4.54101">
        <ele>524</ele>
        <time>2015-10-29T09:03:23Z</time>
      </trkpt>
      <trkpt lat="44.9948" lon="4.54096">
        <ele>523</ele>
        <time>2015-10-29T09:03:28Z</time>
      </trkpt>
      <trkpt lat="44.99473" lon="4.54091">
        <ele>521</ele>
        <time>2015-10-29T09:03:33Z</time>
      </trkpt>
      <trkpt lat="44.99468" lon="4.54085">
        <ele>519</ele>
        <time>2015-10-29T09:03:39Z</time>
      </trkpt>
      <trkpt lat="44.99462" lon="4.54076">
        <ele>515</ele>
        <time>2015-10-29T09:03:48Z</time>
      </trkpt>
      <trkpt lat="44.99457" lon="4.54067">
        <ele>513</ele>
        <time>2015-10-29T09:03:54Z</time>
      </trkpt>
      <trkpt lat="44.99456" lon="4.54057">
        <ele>510</ele>
        <time>2015-10-29T09:03:58Z</time>
      </trkpt>
      <trkpt lat="44.99453" lon="4.54046">
        <ele>508</ele>
        <time>2015-10-29T09:04:03Z</time>
      </trkpt>
      <trkpt lat="44.99447" lon="4.54037">
        <ele>505</ele>
        <time>2015-10-29T09:04:10Z</time>
      </trkpt>
      <trkpt lat="44.99446" lon="4.54029">
        <ele>505</ele>
        <time>2015-10-29T09:04:53Z</time>
      </trkpt>
      <trkpt lat="44.99439" lon="4.54015">
        <ele>508</ele>
        <time>2015-10-29T09:04:57Z</time>
      </trkpt>
      <trkpt lat="44.9944" lon="4.54002">
        <ele>508</ele>
        <time>2015-10-29T09:05:02Z</time>
      </trkpt>
      <trkpt lat="44.99439" lon="4.53994">
        <ele>508</ele>
        <time>2015-10-29T09:05:07Z</time>
      </trkpt>
      <trkpt lat="44.99435" lon="4.53983">
        <ele>507</ele>
        <time>2015-10-29T09:05:13Z</time>
      </trkpt>
      <trkpt lat="44.99431" lon="4.53975">
        <ele>506</ele>
        <time>2015-10-29T09:05:18Z</time>
      </trkpt>
      <trkpt lat="44.99425" lon="4.53965">
        <ele>505</ele>
        <time>2015-10-29T09:05:25Z</time>
      </trkpt>
      <trkpt lat="44.9942" lon="4.53954">
        <ele>504</ele>
        <time>2015-10-29T09:05:32Z</time>
      </trkpt>
      <trkpt lat="44.99417" lon="4.53944">
        <ele>503</ele>
        <time>2015-10-29T09:05:37Z</time>
      </trkpt>
      <trkpt lat="44.99415" lon="4.53935">
        <ele>503</ele>
        <time>2015-10-29T09:05:41Z</time>
      </trkpt>
      <trkpt lat="44.99414" lon="4.53925">
        <ele>502</ele>
        <time>2015-10-29T09:05:45Z</time>
      </trkpt>
      <trkpt lat="44.99414" lon="4.53913">
        <ele>501</ele>
        <time>2015-10-29T09:05:50Z</time>
      </trkpt>
      <trkpt lat="44.99417" lon="4.53903">
        <ele>500</ele>
        <time>2015-10-29T09:05:56Z</time>
      </trkpt>
      <trkpt lat="44.99421" lon="4.53895">
        <ele>498</ele>
        <time>2015-10-29T09:06:01Z</time>
      </trkpt>
      <trkpt lat="44.99427" lon="4.53888">
        <ele>498</ele>
        <time>2015-10-29T09:06:06Z</time>
      </trkpt>
      <trkpt lat="44.99433" lon="4.53883">
        <ele>497</ele>
        <time>2015-10-29T09:06:11Z</time>
      </trkpt>
      <trkpt lat="44.9944" lon="4.53878">
        <ele>495</ele>
        <time>2015-10-29T09:06:17Z</time>
      </trkpt>
      <trkpt lat="44.99447" lon="4.5387">
        <ele>493</ele>
        <time>2015-10-29T09:06:24Z</time>
      </trkpt>
      <trkpt lat="44.99451" lon="4.53861">
        <ele>492</ele>
        <time>2015-10-29T09:06:30Z</time>
      </trkpt>
      <trkpt lat="44.99451" lon="4.53849">
        <ele>491</ele>
        <time>2015-10-29T09:06:37Z</time>
      </trkpt>
      <trkpt lat="44.99446" lon="4.53842">
        <ele>490</ele>
        <time>2015-10-29T09:06:42Z</time>
      </trkpt>
      <trkpt lat="44.99438" lon="4.53836">
        <ele>490</ele>
        <time>2015-10-29T09:06:48Z</time>
      </trkpt>
      <trkpt lat="44.9943" lon="4.53834">
        <ele>490</ele>
        <time>2015-10-29T09:06:54Z</time>
      </trkpt>
      <trkpt lat="44.99422" lon="4.53832">
        <ele>490</ele>
        <time>2015-10-29T09:07:00Z</time>
      </trkpt>
      <trkpt lat="44.9942" lon="4.53832">
        <ele>490</ele>
        <time>2015-10-29T09:07:03Z</time>
      </trkpt>
      <trkpt lat="44.99412" lon="4.53829">
        <ele>489</ele>
        <time>2015-10-29T09:07:09Z</time>
      </trkpt>
      <trkpt lat="44.99405" lon="4.53822">
        <ele>488</ele>
        <time>2015-10-29T09:07:14Z</time>
      </trkpt>
      <trkpt lat="44.99398" lon="4.53816">
        <ele>487</ele>
        <time>2015-10-29T09:07:19Z</time>
      </trkpt>
      <trkpt lat="44.99392" lon="4.53809">
        <ele>486</ele>
        <time>2015-10-29T09:07:28Z</time>
      </trkpt>
      <trkpt lat="44.99382" lon="4.53799">
        <ele>485</ele>
        <time>2015-10-29T09:07:33Z</time>
      </trkpt>
      <trkpt lat="44.99374" lon="4.53793">
        <ele>484</ele>
        <time>2015-10-29T09:07:37Z</time>
      </trkpt>
      <trkpt lat="44.99367" lon="4.53787">
        <ele>483</ele>
        <time>2015-10-29T09:07:43Z</time>
      </trkpt>
      <trkpt lat="44.9936" lon="4.53779">
        <ele>482</ele>
        <time>2015-10-29T09:07:50Z</time>
      </trkpt>
      <trkpt lat="44.99353" lon="4.53773">
        <ele>481</ele>
        <time>2015-10-29T09:07:55Z</time>
      </trkpt>
      <trkpt lat="44.99348" lon="4.53765">
        <ele>480</ele>
        <time>2015-10-29T09:08:00Z</time>
      </trkpt>
      <trkpt lat="44.99343" lon="4.53758">
        <ele>478</ele>
        <time>2015-10-29T09:08:07Z</time>
      </trkpt>
      <trkpt lat="44.99337" lon="4.53747">
        <ele>477</ele>
        <time>2015-10-29T09:08:12Z</time>
      </trkpt>
      <trkpt lat="44.99332" lon="4.53739">
        <ele>476</ele>
        <time>2015-10-29T09:08:17Z</time>
      </trkpt>
      <trkpt lat="44.99328" lon="4.53731">
        <ele>475</ele>
        <time>2015-10-29T09:08:21Z</time>
      </trkpt>
      <trkpt lat="44.99325" lon="4.53722">
        <ele>473</ele>
        <time>2015-10-29T09:08:25Z</time>
      </trkpt>
      <trkpt lat="44.99323" lon="4.53711">
        <ele>472</ele>
        <time>2015-10-29T09:08:31Z</time>
      </trkpt>
      <trkpt lat="44.99318" lon="4.53702">
        <ele>471</ele>
        <time>2015-10-29T09:08:38Z</time>
      </trkpt>
      <trkpt lat="44.99316" lon="4.5369">
        <ele>469</ele>
        <time>2015-10-29T09:08:43Z</time>
      </trkpt>
      <trkpt lat="44.99313" lon="4.53679">
        <ele>468</ele>
        <time>2015-10-29T09:08:51Z</time>
      </trkpt>
      <trkpt lat="44.9931" lon="4.5367">
        <ele>467</ele>
        <time>2015-10-29T09:08:56Z</time>
      </trkpt>
      <trkpt lat="44.99306" lon="4.53661">
        <ele>466</ele>
        <time>2015-10-29T09:09:03Z</time>
      </trkpt>
      <trkpt lat="44.993" lon="4.53649">
        <ele>465</ele>
        <time>2015-10-29T09:09:10Z</time>
      </trkpt>
      <trkpt lat="44.99296" lon="4.53646">
        <ele>464</ele>
        <time>2015-10-29T09:09:18Z</time>
      </trkpt>
      <trkpt lat="44.99289" lon="4.53632">
        <ele>461</ele>
        <time>2015-10-29T09:09:22Z</time>
      </trkpt>
      <trkpt lat="44.99286" lon="4.53627">
        <ele>460</ele>
        <time>2015-10-29T09:09:26Z</time>
      </trkpt>
      <trkpt lat="44.99283" lon="4.53621">
        <ele>459</ele>
        <time>2015-10-29T09:09:29Z</time>
      </trkpt>
      <trkpt lat="44.99278" lon="4.53615">
        <ele>458</ele>
        <time>2015-10-29T09:09:48Z</time>
      </trkpt>
      <trkpt lat="44.99261" lon="4.53585">
        <ele>452</ele>
        <time>2015-10-29T09:09:52Z</time>
      </trkpt>
      <trkpt lat="44.99258" lon="4.53577">
        <ele>451</ele>
        <time>2015-10-29T09:09:56Z</time>
      </trkpt>
      <trkpt lat="44.99254" lon="4.53568">
        <ele>450</ele>
        <time>2015-10-29T09:10:00Z</time>
      </trkpt>
      <trkpt lat="44.99251" lon="4.53558">
        <ele>450</ele>
        <time>2015-10-29T09:10:06Z</time>
      </trkpt>
      <trkpt lat="44.99245" lon="4.53552">
        <ele>449</ele>
        <time>2015-10-29T09:10:12Z</time>
      </trkpt>
      <trkpt lat="44.9924" lon="4.53546">
        <ele>449</ele>
        <time>2015-10-29T09:10:16Z</time>
      </trkpt>
      <trkpt lat="44.99235" lon="4.5354">
        <ele>448</ele>
        <time>2015-10-29T09:10:20Z</time>
      </trkpt>
      <trkpt lat="44.99228" lon="4.53532">
        <ele>447</ele>
        <time>2015-10-29T09:10:25Z</time>
      </trkpt>
      <trkpt lat="44.99223" lon="4.53528">
        <ele>447</ele>
        <time>2015-10-29T09:10:29Z</time>
      </trkpt>
      <trkpt lat="44.99216" lon="4.53521">
        <ele>446</ele>
        <time>2015-10-29T09:10:34Z</time>
      </trkpt>
      <trkpt lat="44.99213" lon="4.53518">
        <ele>446</ele>
        <time>2015-10-29T09:10:36Z</time>
      </trkpt>
      <trkpt lat="44.99207" lon="4.53514">
        <ele>446</ele>
        <time>2015-10-29T09:10:41Z</time>
      </trkpt>
      <trkpt lat="44.99198" lon="4.53509">
        <ele>446</ele>
        <time>2015-10-29T09:10:48Z</time>
      </trkpt>
      <trkpt lat="44.99192" lon="4.53507">
        <ele>447</ele>
        <time>2015-10-29T09:10:53Z</time>
      </trkpt>
      <trkpt lat="44.99182" lon="4.53509">
        <ele>448</ele>
        <time>2015-10-29T09:11:00Z</time>
      </trkpt>
      <trkpt lat="44.99176" lon="4.53512">
        <ele>448</ele>
        <time>2015-10-29T09:11:05Z</time>
      </trkpt>
      <trkpt lat="44.99173" lon="4.53513">
        <ele>449</ele>
        <time>2015-10-29T09:11:14Z</time>
      </trkpt>
      <trkpt lat="44.99152" lon="4.53527">
        <ele>448</ele>
        <time>2015-10-29T09:11:19Z</time>
      </trkpt>
      <trkpt lat="44.99148" lon="4.53532">
        <ele>448</ele>
        <time>2015-10-29T09:11:24Z</time>
      </trkpt>
      <trkpt lat="44.99135" lon="4.53542">
        <ele>448</ele>
        <time>2015-10-29T09:11:29Z</time>
      </trkpt>
      <trkpt lat="44.99124" lon="4.53548">
        <ele>449</ele>
        <time>2015-10-29T09:11:34Z</time>
      </trkpt>
      <trkpt lat="44.99118" lon="4.53557">
        <ele>451</ele>
        <time>2015-10-29T09:11:38Z</time>
      </trkpt>
      <trkpt lat="44.99111" lon="4.53565">
        <ele>455</ele>
        <time>2015-10-29T09:11:44Z</time>
      </trkpt>
      <trkpt lat="44.99105" lon="4.53571">
        <ele>456</ele>
        <time>2015-10-29T09:11:50Z</time>
      </trkpt>
      <trkpt lat="44.991" lon="4.53578">
        <ele>457</ele>
        <time>2015-10-29T09:11:55Z</time>
      </trkpt>
      <trkpt lat="44.99093" lon="4.53582">
        <ele>457</ele>
        <time>2015-10-29T09:11:59Z</time>
      </trkpt>
      <trkpt lat="44.99091" lon="4.53585">
        <ele>457</ele>
        <time>2015-10-29T09:12:02Z</time>
      </trkpt>
      <trkpt lat="44.99085" lon="4.53591">
        <ele>458</ele>
        <time>2015-10-29T09:12:11Z</time>
      </trkpt>
      <trkpt lat="44.99078" lon="4.53603">
        <ele>457</ele>
        <time>2015-10-29T09:12:16Z</time>
      </trkpt>
      <trkpt lat="44.99065" lon="4.5361">
        <ele>457</ele>
        <time>2015-10-29T09:12:21Z</time>
      </trkpt>
      <trkpt lat="44.99058" lon="4.53619">
        <ele>457</ele>
        <time>2015-10-29T09:12:24Z</time>
      </trkpt>
      <trkpt lat="44.9905" lon="4.53626">
        <ele>459</ele>
        <time>2015-10-29T09:12:29Z</time>
      </trkpt>
      <trkpt lat="44.99043" lon="4.53634">
        <ele>460</ele>
        <time>2015-10-29T09:12:33Z</time>
      </trkpt>
      <trkpt lat="44.99036" lon="4.53641">
        <ele>461</ele>
        <time>2015-10-29T09:12:39Z</time>
      </trkpt>
      <trkpt lat="44.9903" lon="4.53649">
        <ele>462</ele>
        <time>2015-10-29T09:12:48Z</time>
      </trkpt>
      <trkpt lat="44.99026" lon="4.53661">
        <ele>464</ele>
        <time>2015-10-29T09:13:00Z</time>
      </trkpt>
      <trkpt lat="44.99031" lon="4.53669">
        <ele>466</ele>
        <time>2015-10-29T09:13:09Z</time>
      </trkpt>
      <trkpt lat="44.99037" lon="4.53678">
        <ele>467</ele>
        <time>2015-10-29T09:13:15Z</time>
      </trkpt>
      <trkpt lat="44.99034" lon="4.53692">
        <ele>467</ele>
        <time>2015-10-29T09:13:20Z</time>
      </trkpt>
      <trkpt lat="44.99034" lon="4.53703">
        <ele>468</ele>
        <time>2015-10-29T09:13:26Z</time>
      </trkpt>
      <trkpt lat="44.99036" lon="4.53714">
        <ele>469</ele>
        <time>2015-10-29T09:13:33Z</time>
      </trkpt>
      <trkpt lat="44.99041" lon="4.53721">
        <ele>469</ele>
        <time>2015-10-29T09:13:37Z</time>
      </trkpt>
      <trkpt lat="44.99033" lon="4.53722">
        <ele>470</ele>
        <time>2015-10-29T09:13:56Z</time>
      </trkpt>
      <trkpt lat="44.99025" lon="4.53719">
        <ele>470</ele>
        <time>2015-10-29T09:14:03Z</time>
      </trkpt>
      <trkpt lat="44.99015" lon="4.53724">
        <ele>470</ele>
        <time>2015-10-29T09:14:07Z</time>
      </trkpt>
      <trkpt lat="44.99004" lon="4.53734">
        <ele>470</ele>
        <time>2015-10-29T09:14:12Z</time>
      </trkpt>
      <trkpt lat="44.98999" lon="4.53725">
        <ele>470</ele>
        <time>2015-10-29T09:14:20Z</time>
      </trkpt>
      <trkpt lat="44.98991" lon="4.53726">
        <ele>470</ele>
        <time>2015-10-29T09:14:29Z</time>
      </trkpt>
      <trkpt lat="44.98978" lon="4.5375">
        <ele>470</ele>
        <time>2015-10-29T09:14:34Z</time>
      </trkpt>
      <trkpt lat="44.98962" lon="4.53757">
        <ele>468</ele>
        <time>2015-10-29T09:14:38Z</time>
      </trkpt>
      <trkpt lat="44.98957" lon="4.53748">
        <ele>467</ele>
        <time>2015-10-29T09:14:42Z</time>
      </trkpt>
      <trkpt lat="44.98954" lon="4.53738">
        <ele>466</ele>
        <time>2015-10-29T09:14:46Z</time>
      </trkpt>
      <trkpt lat="44.98953" lon="4.53724">
        <ele>465</ele>
        <time>2015-10-29T09:14:50Z</time>
      </trkpt>
      <trkpt lat="44.98949" lon="4.53715">
        <ele>465</ele>
        <time>2015-10-29T09:14:54Z</time>
      </trkpt>
      <trkpt lat="44.98942" lon="4.53703">
        <ele>465</ele>
        <time>2015-10-29T09:14:58Z</time>
      </trkpt>
      <trkpt lat="44.98937" lon="4.53695">
        <ele>465</ele>
        <time>2015-10-29T09:15:04Z</time>
      </trkpt>
      <trkpt lat="44.98938" lon="4.53686">
        <ele>464</ele>
        <time>2015-10-29T09:15:09Z</time>
      </trkpt>
      <trkpt lat="44.98947" lon="4.53683">
        <ele>458</ele>
        <time>2015-10-29T09:15:20Z</time>
      </trkpt>
      <trkpt lat="44.98954" lon="4.53685">
        <ele>452</ele>
        <time>2015-10-29T09:15:30Z</time>
      </trkpt>
      <trkpt lat="44.98962" lon="4.53685">
        <ele>451</ele>
        <time>2015-10-29T09:15:37Z</time>
      </trkpt>
      <trkpt lat="44.98967" lon="4.5368">
        <ele>450</ele>
        <time>2015-10-29T09:15:40Z</time>
      </trkpt>
      <trkpt lat="44.98971" lon="4.5367">
        <ele>450</ele>
        <time>2015-10-29T09:15:44Z</time>
      </trkpt>
      <trkpt lat="44.98971" lon="4.53623">
        <ele>450</ele>
        <time>2015-10-29T09:15:49Z</time>
      </trkpt>
      <trkpt lat="44.98964" lon="4.53604">
        <ele>450</ele>
        <time>2015-10-29T09:15:53Z</time>
      </trkpt>
      <trkpt lat="44.98972" lon="4.53602">
        <ele>450</ele>
        <time>2015-10-29T09:15:59Z</time>
      </trkpt>
      <trkpt lat="44.98978" lon="4.53594">
        <ele>451</ele>
        <time>2015-10-29T09:16:03Z</time>
      </trkpt>
      <trkpt lat="44.98982" lon="4.53584">
        <ele>450</ele>
        <time>2015-10-29T09:16:11Z</time>
      </trkpt>
      <trkpt lat="44.98984" lon="4.53574">
        <ele>450</ele>
        <time>2015-10-29T09:16:19Z</time>
      </trkpt>
      <trkpt lat="44.98988" lon="4.53563">
        <ele>448</ele>
        <time>2015-10-29T09:16:23Z</time>
      </trkpt>
      <trkpt lat="44.98994" lon="4.53554">
        <ele>444</ele>
        <time>2015-10-29T09:16:32Z</time>
      </trkpt>
      <trkpt lat="44.99" lon="4.53506">
        <ele>436</ele>
        <time>2015-10-29T09:16:49Z</time>
      </trkpt>
      <trkpt lat="44.99004" lon="4.53488">
        <ele>433</ele>
        <time>2015-10-29T09:16:53Z</time>
      </trkpt>
      <trkpt lat="44.99013" lon="4.53467">
        <ele>431</ele>
        <time>2015-10-29T09:17:00Z</time>
      </trkpt>
      <trkpt lat="44.99015" lon="4.53455">
        <ele>427</ele>
        <time>2015-10-29T09:17:07Z</time>
      </trkpt>
      <trkpt lat="44.99021" lon="4.53442">
        <ele>425</ele>
        <time>2015-10-29T09:17:11Z</time>
      </trkpt>
      <trkpt lat="44.99023" lon="4.53426">
        <ele>424</ele>
        <time>2015-10-29T09:17:15Z</time>
      </trkpt>
      <trkpt lat="44.99031" lon="4.53408">
        <ele>422</ele>
        <time>2015-10-29T09:17:20Z</time>
      </trkpt>
      <trkpt lat="44.99039" lon="4.53412">
        <ele>421</ele>
        <time>2015-10-29T09:17:26Z</time>
      </trkpt>
      <trkpt lat="44.99045" lon="4.53411">
        <ele>421</ele>
        <time>2015-10-29T09:17:29Z</time>
      </trkpt>
      <trkpt lat="44.99056" lon="4.53406">
        <ele>420</ele>
        <time>2015-10-29T09:17:33Z</time>
      </trkpt>
      <trkpt lat="44.99063" lon="4.534">
        <ele>419</ele>
        <time>2015-10-29T09:17:43Z</time>
      </trkpt>
      <trkpt lat="44.99066" lon="4.53392">
        <ele>418</ele>
        <time>2015-10-29T09:17:50Z</time>
      </trkpt>
      <trkpt lat="44.99068" lon="4.53384">
        <ele>416</ele>
        <time>2015-10-29T09:17:54Z</time>
      </trkpt>
      <trkpt lat="44.99068" lon="4.53372">
        <ele>414</ele>
        <time>2015-10-29T09:18:00Z</time>
      </trkpt>
      <trkpt lat="44.99072" lon="4.53361">
        <ele>413</ele>
        <time>2015-10-29T09:18:08Z</time>
      </trkpt>
      <trkpt lat="44.99072" lon="4.53349">
        <ele>411</ele>
        <time>2015-10-29T09:18:14Z</time>
      </trkpt>
      <trkpt lat="44.99073" lon="4.53338">
        <ele>410</ele>
        <time>2015-10-29T09:18:20Z</time>
      </trkpt>
      <trkpt lat="44.9907" lon="4.53323">
        <ele>408</ele>
        <time>2015-10-29T09:18:25Z</time>
      </trkpt>
      <trkpt lat="44.99068" lon="4.5331">
        <ele>407</ele>
        <time>2015-10-29T09:18:30Z</time>
      </trkpt>
      <trkpt lat="44.99067" lon="4.53298">
        <ele>405</ele>
        <time>2015-10-29T09:18:35Z</time>
      </trkpt>
      <trkpt lat="44.99066" lon="4.53288">
        <ele>404</ele>
        <time>2015-10-29T09:18:40Z</time>
      </trkpt>
      <trkpt lat="44.99068" lon="4.53278">
        <ele>403</ele>
        <time>2015-10-29T09:18:45Z</time>
      </trkpt>
      <trkpt lat="44.99069" lon="4.53268">
        <ele>402</ele>
        <time>2015-10-29T09:18:50Z</time>
      </trkpt>
      <trkpt lat="44.9907" lon="4.53259">
        <ele>400</ele>
        <time>2015-10-29T09:18:54Z</time>
      </trkpt>
      <trkpt lat="44.99074" lon="4.53253">
        <ele>398</ele>
        <time>2015-10-29T09:18:58Z</time>
      </trkpt>
      <trkpt lat="44.99079" lon="4.53247">
        <ele>396</ele>
        <time>2015-10-29T09:19:09Z</time>
      </trkpt>
      <trkpt lat="44.99087" lon="4.53235">
        <ele>386</ele>
        <time>2015-10-29T09:19:14Z</time>
      </trkpt>
      <trkpt lat="44.99092" lon="4.53214">
        <ele>380</ele>
        <time>2015-10-29T09:19:19Z</time>
      </trkpt>
      <trkpt lat="44.99097" lon="4.53203">
        <ele>377</ele>
        <time>2015-10-29T09:19:22Z</time>
      </trkpt>
      <trkpt lat="44.99109" lon="4.53216">
        <ele>375</ele>
        <time>2015-10-29T09:19:26Z</time>
      </trkpt>
      <trkpt lat="44.99117" lon="4.53221">
        <ele>367</ele>
        <time>2015-10-29T09:19:34Z</time>
      </trkpt>
      <trkpt lat="44.99122" lon="4.53224">
        <ele>364</ele>
        <time>2015-10-29T09:19:38Z</time>
      </trkpt>
      <trkpt lat="44.99134" lon="4.53221">
        <ele>361</ele>
        <time>2015-10-29T09:19:42Z</time>
      </trkpt>
      <trkpt lat="44.9915" lon="4.5321">
        <ele>359</ele>
        <time>2015-10-29T09:19:46Z</time>
      </trkpt>
      <trkpt lat="44.99157" lon="4.53203">
        <ele>357</ele>
        <time>2015-10-29T09:19:49Z</time>
      </trkpt>
      <trkpt lat="44.99156" lon="4.53215">
        <ele>354</ele>
        <time>2015-10-29T09:19:56Z</time>
      </trkpt>
      <trkpt lat="44.99161" lon="4.53224">
        <ele>351</ele>
        <time>2015-10-29T09:20:04Z</time>
      </trkpt>
      <trkpt lat="44.99167" lon="4.53232">
        <ele>349</ele>
        <time>2015-10-29T09:20:10Z</time>
      </trkpt>
      <trkpt lat="44.99167" lon="4.53258">
        <ele>347</ele>
        <time>2015-10-29T09:20:14Z</time>
      </trkpt>
      <trkpt lat="44.99173" lon="4.53246">
        <ele>344</ele>
        <time>2015-10-29T09:20:18Z</time>
      </trkpt>
      <trkpt lat="44.99176" lon="4.53251">
        <ele>339</ele>
        <time>2015-10-29T09:20:26Z</time>
      </trkpt>
      <trkpt lat="44.99182" lon="4.53258">
        <ele>331</ele>
        <time>2015-10-29T09:20:37Z</time>
      </trkpt>
      <trkpt lat="44.99189" lon="4.5326">
        <ele>327</ele>
        <time>2015-10-29T09:20:42Z</time>
      </trkpt>
      <trkpt lat="44.99198" lon="4.53259">
        <ele>325</ele>
        <time>2015-10-29T09:20:48Z</time>
      </trkpt>
      <trkpt lat="44.99206" lon="4.53263">
        <ele>323</ele>
        <time>2015-10-29T09:20:52Z</time>
      </trkpt>
      <trkpt lat="44.99213" lon="4.53263">
        <ele>321</ele>
        <time>2015-10-29T09:20:57Z</time>
      </trkpt>
      <trkpt lat="44.99219" lon="4.53259">
        <ele>319</ele>
        <time>2015-10-29T09:21:01Z</time>
      </trkpt>
      <trkpt lat="44.99227" lon="4.53259">
        <ele>317</ele>
        <time>2015-10-29T09:21:08Z</time>
      </trkpt>
      <trkpt lat="44.99236" lon="4.5326">
        <ele>314</ele>
        <time>2015-10-29T09:21:14Z</time>
      </trkpt>
      <trkpt lat="44.99244" lon="4.53259">
        <ele>313</ele>
        <time>2015-10-29T09:21:19Z</time>
      </trkpt>
      <trkpt lat="44.99251" lon="4.53261">
        <ele>312</ele>
        <time>2015-10-29T09:21:23Z</time>
      </trkpt>
      <trkpt lat="44.9926" lon="4.53263">
        <ele>311</ele>
        <time>2015-10-29T09:21:27Z</time>
      </trkpt>
      <trkpt lat="44.99267" lon="4.53268">
        <ele>311</ele>
        <time>2015-10-29T09:21:33Z</time>
      </trkpt>
      <trkpt lat="44.99274" lon="4.53269">
        <ele>310</ele>
        <time>2015-10-29T09:21:38Z</time>
      </trkpt>
      <trkpt lat="44.99281" lon="4.53274">
        <ele>308</ele>
        <time>2015-10-29T09:21:48Z</time>
      </trkpt>
      <trkpt lat="44.99289" lon="4.5328">
        <ele>307</ele>
        <time>2015-10-29T09:21:57Z</time>
      </trkpt>
      <trkpt lat="44.99295" lon="4.53288">
        <ele>306</ele>
        <time>2015-10-29T09:22:04Z</time>
      </trkpt>
      <trkpt lat="44.99301" lon="4.53292">
        <ele>305</ele>
        <time>2015-10-29T09:22:08Z</time>
      </trkpt>
      <trkpt lat="44.99307" lon="4.53287">
        <ele>305</ele>
        <time>2015-10-29T09:22:12Z</time>
      </trkpt>
      <trkpt lat="44.99326" lon="4.53277">
        <ele>306</ele>
        <time>2015-10-29T09:22:16Z</time>
      </trkpt>
      <trkpt lat="44.99328" lon="4.53266">
        <ele>306</ele>
        <time>2015-10-29T09:22:20Z</time>
      </trkpt>
      <trkpt lat="44.99332" lon="4.53255">
        <ele>307</ele>
        <time>2015-10-29T09:22:26Z</time>
      </trkpt>
      <trkpt lat="44.99329" lon="4.53244">
        <ele>306</ele>
        <time>2015-10-29T09:22:31Z</time>
      </trkpt>
      <trkpt lat="44.99326" lon="4.53239">
        <ele>306</ele>
        <time>2015-10-29T09:22:34Z</time>
      </trkpt>
      <trkpt lat="44.99322" lon="4.53224">
        <ele>305</ele>
        <time>2015-10-29T09:22:41Z</time>
      </trkpt>
      <trkpt lat="44.9932" lon="4.5322">
        <ele>305</ele>
        <time>2015-10-29T09:22:43Z</time>
      </trkpt>
      <trkpt lat="44.99313" lon="4.53218">
        <ele>304</ele>
        <time>2015-10-29T09:22:59Z</time>
      </trkpt>
      <trkpt lat="44.99297" lon="4.53199">
        <ele>302</ele>
        <time>2015-10-29T09:23:01Z</time>
      </trkpt>
      <trkpt lat="44.99285" lon="4.53188">
        <ele>304</ele>
        <time>2015-10-29T09:23:06Z</time>
      </trkpt>
      <trkpt lat="44.99279" lon="4.53178">
        <ele>305</ele>
        <time>2015-10-29T09:23:11Z</time>
      </trkpt>
      <trkpt lat="44.99276" lon="4.53168">
        <ele>305</ele>
        <time>2015-10-29T09:23:16Z</time>
      </trkpt>
      <trkpt lat="44.99273" lon="4.53152">
        <ele>305</ele>
        <time>2015-10-29T09:23:21Z</time>
      </trkpt>
      <trkpt lat="44.99269" lon="4.53142">
        <ele>306</ele>
        <time>2015-10-29T09:23:25Z</time>
      </trkpt>
      <trkpt lat="44.99265" lon="4.53129">
        <ele>307</ele>
        <time>2015-10-29T09:23:29Z</time>
      </trkpt>
      <trkpt lat="44.99263" lon="4.53116">
        <ele>307</ele>
        <time>2015-10-29T09:23:34Z</time>
      </trkpt>
      <trkpt lat="44.9926" lon="4.53107">
        <ele>309</ele>
        <time>2015-10-29T09:23:41Z</time>
      </trkpt>
      <trkpt lat="44.99255" lon="4.53091">
        <ele>310</ele>
        <time>2015-10-29T09:23:46Z</time>
      </trkpt>
      <trkpt lat="44.99252" lon="4.53083">
        <ele>311</ele>
        <time>2015-10-29T09:23:50Z</time>
      </trkpt>
      <trkpt lat="44.99251" lon="4.53074">
        <ele>311</ele>
        <time>2015-10-29T09:23:54Z</time>
      </trkpt>
      <trkpt lat="44.99249" lon="4.53063">
        <ele>312</ele>
        <time>2015-10-29T09:23:58Z</time>
      </trkpt>
      <trkpt lat="44.99248" lon="4.53054">
        <ele>315</ele>
        <time>2015-10-29T09:24:10Z</time>
      </trkpt>
      <trkpt lat="44.99249" lon="4.53045">
        <ele>316</ele>
        <time>2015-10-29T09:24:18Z</time>
      </trkpt>
      <trkpt lat="44.99248" lon="4.53035">
        <ele>319</ele>
        <time>2015-10-29T09:24:24Z</time>
      </trkpt>
      <trkpt lat="44.99252" lon="4.53018">
        <ele>328</ele>
        <time>2015-10-29T09:24:29Z</time>
      </trkpt>
      <trkpt lat="44.99251" lon="4.53003">
        <ele>337</ele>
        <time>2015-10-29T09:24:33Z</time>
      </trkpt>
      <trkpt lat="44.99251" lon="4.53">
        <ele>339</ele>
        <time>2015-10-29T09:25:00Z</time>
      </trkpt>
      <trkpt lat="44.99251" lon="4.52986">
        <ele>357</ele>
        <time>2015-10-29T09:25:04Z</time>
      </trkpt>
      <trkpt lat="44.99251" lon="4.52986">
        <ele>357</ele>
        <time>2015-10-29T09:26:14Z</time>
      </trkpt>
      <trkpt lat="44.99242" lon="4.52987">
        <ele>370</ele>
        <time>2015-10-29T09:26:29Z</time>
      </trkpt>
      <trkpt lat="44.9924" lon="4.52974">
        <ele>370</ele>
        <time>2015-10-29T09:28:50Z</time>
      </trkpt>
      <trkpt lat="44.99231" lon="4.5296">
        <ele>369</ele>
        <time>2015-10-29T09:28:55Z</time>
      </trkpt>
      <trkpt lat="44.99227" lon="4.52951">
        <ele>369</ele>
        <time>2015-10-29T09:28:58Z</time>
      </trkpt>
      <trkpt lat="44.99223" lon="4.52939">
        <ele>369</ele>
        <time>2015-10-29T09:29:02Z</time>
      </trkpt>
      <trkpt lat="44.99221" lon="4.5293">
        <ele>368</ele>
        <time>2015-10-29T09:29:05Z</time>
      </trkpt>
      <trkpt lat="44.99216" lon="4.52921">
        <ele>367</ele>
        <time>2015-10-29T09:29:09Z</time>
      </trkpt>
      <trkpt lat="44.99213" lon="4.52908">
        <ele>366</ele>
        <time>2015-10-29T09:29:13Z</time>
      </trkpt>
      <trkpt lat="44.99209" lon="4.52899">
        <ele>364</ele>
        <time>2015-10-29T09:29:19Z</time>
      </trkpt>
      <trkpt lat="44.9921" lon="4.52887">
        <ele>362</ele>
        <time>2015-10-29T09:29:28Z</time>
      </trkpt>
      <trkpt lat="44.99214" lon="4.52879">
        <ele>361</ele>
        <time>2015-10-29T09:29:35Z</time>
      </trkpt>
      <trkpt lat="44.99215" lon="4.52866">
        <ele>359</ele>
        <time>2015-10-29T09:29:43Z</time>
      </trkpt>
      <trkpt lat="44.99222" lon="4.52863">
        <ele>359</ele>
        <time>2015-10-29T09:29:49Z</time>
      </trkpt>
      <trkpt lat="44.99229" lon="4.52856">
        <ele>358</ele>
        <time>2015-10-29T09:30:05Z</time>
      </trkpt>
      <trkpt lat="44.99235" lon="4.52844">
        <ele>358</ele>
        <time>2015-10-29T09:30:09Z</time>
      </trkpt>
      <trkpt lat="44.99238" lon="4.52836">
        <ele>369</ele>
        <time>2015-10-29T09:30:21Z</time>
      </trkpt>
      <trkpt lat="44.99251" lon="4.52831">
        <ele>373</ele>
        <time>2015-10-29T09:30:25Z</time>
      </trkpt>
      <trkpt lat="44.9926" lon="4.52827">
        <ele>375</ele>
        <time>2015-10-29T09:30:28Z</time>
      </trkpt>
      <trkpt lat="44.99269" lon="4.52822">
        <ele>380</ele>
        <time>2015-10-29T09:30:33Z</time>
      </trkpt>
      <trkpt lat="44.99279" lon="4.5282">
        <ele>384</ele>
        <time>2015-10-29T09:30:37Z</time>
      </trkpt>
      <trkpt lat="44.99279" lon="4.52814">
        <ele>385</ele>
        <time>2015-10-29T09:30:41Z</time>
      </trkpt>
      <trkpt lat="44.99278" lon="4.52803">
        <ele>387</ele>
        <time>2015-10-29T09:30:44Z</time>
      </trkpt>
      <trkpt lat="44.99281" lon="4.52792">
        <ele>388</ele>
        <time>2015-10-29T09:30:52Z</time>
      </trkpt>
      <trkpt lat="44.99279" lon="4.5278">
        <ele>389</ele>
        <time>2015-10-29T09:30:58Z</time>
      </trkpt>
      <trkpt lat="44.99286" lon="4.52774">
        <ele>390</ele>
        <time>2015-10-29T09:31:07Z</time>
      </trkpt>
      <trkpt lat="44.99298" lon="4.52766">
        <ele>392</ele>
        <time>2015-10-29T09:31:11Z</time>
      </trkpt>
      <trkpt lat="44.99304" lon="4.52761">
        <ele>394</ele>
        <time>2015-10-29T09:31:16Z</time>
      </trkpt>
      <trkpt lat="44.99309" lon="4.52754">
        <ele>395</ele>
        <time>2015-10-29T09:31:20Z</time>
      </trkpt>
      <trkpt lat="44.99317" lon="4.52741">
        <ele>396</ele>
        <time>2015-10-29T09:31:25Z</time>
      </trkpt>
      <trkpt lat="44.99322" lon="4.52733">
        <ele>397</ele>
        <time>2015-10-29T09:31:28Z</time>
      </trkpt>
      <trkpt lat="44.99326" lon="4.52721">
        <ele>399</ele>
        <time>2015-10-29T09:31:32Z</time>
      </trkpt>
      <trkpt lat="44.99327" lon="4.52712">
        <ele>401</ele>
        <time>2015-10-29T09:31:35Z</time>
      </trkpt>
      <trkpt lat="44.99328" lon="4.52698">
        <ele>403</ele>
        <time>2015-10-29T09:31:39Z</time>
      </trkpt>
      <trkpt lat="44.99331" lon="4.5268">
        <ele>405</ele>
        <time>2015-10-29T09:31:44Z</time>
      </trkpt>
      <trkpt lat="44.99333" lon="4.52672">
        <ele>406</ele>
        <time>2015-10-29T09:31:47Z</time>
      </trkpt>
      <trkpt lat="44.99339" lon="4.52659">
        <ele>407</ele>
        <time>2015-10-29T09:31:52Z</time>
      </trkpt>
      <trkpt lat="44.99343" lon="4.52649">
        <ele>408</ele>
        <time>2015-10-29T09:31:56Z</time>
      </trkpt>
      <trkpt lat="44.99349" lon="4.52635">
        <ele>408</ele>
        <time>2015-10-29T09:32:01Z</time>
      </trkpt>
      <trkpt lat="44.99353" lon="4.52624">
        <ele>408</ele>
        <time>2015-10-29T09:32:05Z</time>
      </trkpt>
      <trkpt lat="44.99355" lon="4.52607">
        <ele>408</ele>
        <time>2015-10-29T09:32:10Z</time>
      </trkpt>
      <trkpt lat="44.9936" lon="4.52599">
        <ele>408</ele>
        <time>2015-10-29T09:32:14Z</time>
      </trkpt>
      <trkpt lat="44.99365" lon="4.52588">
        <ele>409</ele>
        <time>2015-10-29T09:32:19Z</time>
      </trkpt>
      <trkpt lat="44.99365" lon="4.52581">
        <ele>409</ele>
        <time>2015-10-29T09:32:22Z</time>
      </trkpt>
      <trkpt lat="44.99368" lon="4.52569">
        <ele>409</ele>
        <time>2015-10-29T09:32:26Z</time>
      </trkpt>
      <trkpt lat="44.99373" lon="4.5256">
        <ele>408</ele>
        <time>2015-10-29T09:32:30Z</time>
      </trkpt>
      <trkpt lat="44.99377" lon="4.52551">
        <ele>407</ele>
        <time>2015-10-29T09:32:36Z</time>
      </trkpt>
      <trkpt lat="44.9938" lon="4.52541">
        <ele>408</ele>
        <time>2015-10-29T09:32:42Z</time>
      </trkpt>
      <trkpt lat="44.99383" lon="4.52532">
        <ele>409</ele>
        <time>2015-10-29T09:32:46Z</time>
      </trkpt>
      <trkpt lat="44.99384" lon="4.52521">
        <ele>410</ele>
        <time>2015-10-29T09:32:51Z</time>
      </trkpt>
      <trkpt lat="44.99391" lon="4.52514">
        <ele>411</ele>
        <time>2015-10-29T09:32:56Z</time>
      </trkpt>
      <trkpt lat="44.99395" lon="4.52505">
        <ele>414</ele>
        <time>2015-10-29T09:33:02Z</time>
      </trkpt>
      <trkpt lat="44.99396" lon="4.52495">
        <ele>417</ele>
        <time>2015-10-29T09:33:07Z</time>
      </trkpt>
      <trkpt lat="44.99397" lon="4.52482">
        <ele>419</ele>
        <time>2015-10-29T09:33:12Z</time>
      </trkpt>
      <trkpt lat="44.99399" lon="4.52471">
        <ele>422</ele>
        <time>2015-10-29T09:33:18Z</time>
      </trkpt>
      <trkpt lat="44.994" lon="4.52462">
        <ele>423</ele>
        <time>2015-10-29T09:33:22Z</time>
      </trkpt>
      <trkpt lat="44.99401" lon="4.5245">
        <ele>424</ele>
        <time>2015-10-29T09:33:27Z</time>
      </trkpt>
      <trkpt lat="44.99402" lon="4.52442">
        <ele>424</ele>
        <time>2015-10-29T09:33:30Z</time>
      </trkpt>
      <trkpt lat="44.99404" lon="4.52431">
        <ele>424</ele>
        <time>2015-10-29T09:33:36Z</time>
      </trkpt>
      <trkpt lat="44.99406" lon="4.52422">
        <ele>424</ele>
        <time>2015-10-29T09:33:40Z</time>
      </trkpt>
      <trkpt lat="44.99407" lon="4.52414">
        <ele>424</ele>
        <time>2015-10-29T09:33:58Z</time>
      </trkpt>
      <trkpt lat="44.99409" lon="4.52371">
        <ele>419</ele>
        <time>2015-10-29T09:34:02Z</time>
      </trkpt>
      <trkpt lat="44.99409" lon="4.52359">
        <ele>418</ele>
        <time>2015-10-29T09:34:07Z</time>
      </trkpt>
      <trkpt lat="44.99408" lon="4.52346">
        <ele>418</ele>
        <time>2015-10-29T09:34:12Z</time>
      </trkpt>
      <trkpt lat="44.9941" lon="4.52334">
        <ele>419</ele>
        <time>2015-10-29T09:34:18Z</time>
      </trkpt>
      <trkpt lat="44.9941" lon="4.52322">
        <ele>419</ele>
        <time>2015-10-29T09:34:24Z</time>
      </trkpt>
      <trkpt lat="44.99408" lon="4.52311">
        <ele>420</ele>
        <time>2015-10-29T09:34:29Z</time>
      </trkpt>
      <trkpt lat="44.99408" lon="4.52301">
        <ele>419</ele>
        <time>2015-10-29T09:34:34Z</time>
      </trkpt>
      <trkpt lat="44.99408" lon="4.5229">
        <ele>419</ele>
        <time>2015-10-29T09:34:38Z</time>
      </trkpt>
      <trkpt lat="44.99408" lon="4.52279">
        <ele>419</ele>
        <time>2015-10-29T09:34:42Z</time>
      </trkpt>
      <trkpt lat="44.99407" lon="4.5227">
        <ele>418</ele>
        <time>2015-10-29T09:34:47Z</time>
      </trkpt>
      <trkpt lat="44.99408" lon="4.52258">
        <ele>418</ele>
        <time>2015-10-29T09:34:52Z</time>
      </trkpt>
      <trkpt lat="44.99407" lon="4.52247">
        <ele>418</ele>
        <time>2015-10-29T09:34:57Z</time>
      </trkpt>
      <trkpt lat="44.99407" lon="4.52236">
        <ele>419</ele>
        <time>2015-10-29T09:35:04Z</time>
      </trkpt>
      <trkpt lat="44.99407" lon="4.52225">
        <ele>421</ele>
        <time>2015-10-29T09:35:09Z</time>
      </trkpt>
      <trkpt lat="44.99406" lon="4.52213">
        <ele>422</ele>
        <time>2015-10-29T09:35:16Z</time>
      </trkpt>
      <trkpt lat="44.99409" lon="4.52203">
        <ele>422</ele>
        <time>2015-10-29T09:35:21Z</time>
      </trkpt>
      <trkpt lat="44.99413" lon="4.52194">
        <ele>421</ele>
        <time>2015-10-29T09:35:25Z</time>
      </trkpt>
      <trkpt lat="44.99414" lon="4.52185">
        <ele>420</ele>
        <time>2015-10-29T09:35:28Z</time>
      </trkpt>
      <trkpt lat="44.99411" lon="4.52178">
        <ele>420</ele>
        <time>2015-10-29T09:35:32Z</time>
      </trkpt>
      <trkpt lat="44.9941" lon="4.52171">
        <ele>419</ele>
        <time>2015-10-29T09:35:35Z</time>
      </trkpt>
      <trkpt lat="44.99408" lon="4.52157">
        <ele>418</ele>
        <time>2015-10-29T09:35:39Z</time>
      </trkpt>
      <trkpt lat="44.99405" lon="4.52145">
        <ele>416</ele>
        <time>2015-10-29T09:35:43Z</time>
      </trkpt>
      <trkpt lat="44.99402" lon="4.52135">
        <ele>415</ele>
        <time>2015-10-29T09:35:49Z</time>
      </trkpt>
      <trkpt lat="44.99399" lon="4.52127">
        <ele>415</ele>
        <time>2015-10-29T09:35:53Z</time>
      </trkpt>
      <trkpt lat="44.99394" lon="4.52117">
        <ele>414</ele>
        <time>2015-10-29T09:35:57Z</time>
      </trkpt>
      <trkpt lat="44.99393" lon="4.52107">
        <ele>413</ele>
        <time>2015-10-29T09:36:03Z</time>
      </trkpt>
      <trkpt lat="44.99392" lon="4.52099">
        <ele>412</ele>
        <time>2015-10-29T09:36:06Z</time>
      </trkpt>
      <trkpt lat="44.9939" lon="4.52085">
        <ele>411</ele>
        <time>2015-10-29T09:36:11Z</time>
      </trkpt>
      <trkpt lat="44.99386" lon="4.52076">
        <ele>409</ele>
        <time>2015-10-29T09:36:17Z</time>
      </trkpt>
      <trkpt lat="44.99382" lon="4.5207">
        <ele>408</ele>
        <time>2015-10-29T09:36:21Z</time>
      </trkpt>
      <trkpt lat="44.99379" lon="4.52059">
        <ele>406</ele>
        <time>2015-10-29T09:36:26Z</time>
      </trkpt>
      <trkpt lat="44.99375" lon="4.52047">
        <ele>402</ele>
        <time>2015-10-29T09:36:34Z</time>
      </trkpt>
      <trkpt lat="44.9937" lon="4.52038">
        <ele>401</ele>
        <time>2015-10-29T09:36:41Z</time>
      </trkpt>
      <trkpt lat="44.99365" lon="4.52029">
        <ele>401</ele>
        <time>2015-10-29T09:36:46Z</time>
      </trkpt>
      <trkpt lat="44.99362" lon="4.5202">
        <ele>400</ele>
        <time>2015-10-29T09:36:51Z</time>
      </trkpt>
      <trkpt lat="44.99362" lon="4.52009">
        <ele>400</ele>
        <time>2015-10-29T09:36:57Z</time>
      </trkpt>
      <trkpt lat="44.99361" lon="4.52003">
        <ele>400</ele>
        <time>2015-10-29T09:37:01Z</time>
      </trkpt>
      <trkpt lat="44.99354" lon="4.51989">
        <ele>400</ele>
        <time>2015-10-29T09:37:06Z</time>
      </trkpt>
      <trkpt lat="44.99348" lon="4.51982">
        <ele>398</ele>
        <time>2015-10-29T09:37:10Z</time>
      </trkpt>
      <trkpt lat="44.99344" lon="4.51977">
        <ele>396</ele>
        <time>2015-10-29T09:37:15Z</time>
      </trkpt>
      <trkpt lat="44.99338" lon="4.51958">
        <ele>396</ele>
        <time>2015-10-29T09:37:27Z</time>
      </trkpt>
      <trkpt lat="44.99333" lon="4.51943">
        <ele>397</ele>
        <time>2015-10-29T09:37:33Z</time>
      </trkpt>
      <trkpt lat="44.99327" lon="4.5193">
        <ele>397</ele>
        <time>2015-10-29T09:37:41Z</time>
      </trkpt>
      <trkpt lat="44.99324" lon="4.51926">
        <ele>397</ele>
        <time>2015-10-29T09:37:46Z</time>
      </trkpt>
      <trkpt lat="44.99321" lon="4.51917">
        <ele>396</ele>
        <time>2015-10-29T09:37:53Z</time>
      </trkpt>
      <trkpt lat="44.99318" lon="4.51901">
        <ele>396</ele>
        <time>2015-10-29T09:37:57Z</time>
      </trkpt>
      <trkpt lat="44.99319" lon="4.51891">
        <ele>397</ele>
        <time>2015-10-29T09:38:01Z</time>
      </trkpt>
      <trkpt lat="44.99321" lon="4.51877">
        <ele>401</ele>
        <time>2015-10-29T09:38:06Z</time>
      </trkpt>
      <trkpt lat="44.9932" lon="4.51866">
        <ele>398</ele>
        <time>2015-10-29T09:38:11Z</time>
      </trkpt>
      <trkpt lat="44.99321" lon="4.51855">
        <ele>395</ele>
        <time>2015-10-29T09:38:16Z</time>
      </trkpt>
      <trkpt lat="44.99323" lon="4.51845">
        <ele>394</ele>
        <time>2015-10-29T09:38:20Z</time>
      </trkpt>
      <trkpt lat="44.99326" lon="4.51835">
        <ele>393</ele>
        <time>2015-10-29T09:38:24Z</time>
      </trkpt>
      <trkpt lat="44.99332" lon="4.51826">
        <ele>391</ele>
        <time>2015-10-29T09:38:29Z</time>
      </trkpt>
      <trkpt lat="44.99347" lon="4.51813">
        <ele>391</ele>
        <time>2015-10-29T09:38:41Z</time>
      </trkpt>
      <trkpt lat="44.99355" lon="4.51809">
        <ele>390</ele>
        <time>2015-10-29T09:38:47Z</time>
      </trkpt>
      <trkpt lat="44.99366" lon="4.51803">
        <ele>390</ele>
        <time>2015-10-29T09:38:53Z</time>
      </trkpt>
      <trkpt lat="44.99372" lon="4.51796">
        <ele>391</ele>
        <time>2015-10-29T09:39:00Z</time>
      </trkpt>
      <trkpt lat="44.9938" lon="4.51792">
        <ele>392</ele>
        <time>2015-10-29T09:39:04Z</time>
      </trkpt>
      <trkpt lat="44.99389" lon="4.51787">
        <ele>393</ele>
        <time>2015-10-29T09:39:09Z</time>
      </trkpt>
      <trkpt lat="44.99396" lon="4.51782">
        <ele>397</ele>
        <time>2015-10-29T09:39:17Z</time>
      </trkpt>
      <trkpt lat="44.99402" lon="4.51781">
        <ele>397</ele>
        <time>2015-10-29T09:39:20Z</time>
      </trkpt>
      <trkpt lat="44.99411" lon="4.51779">
        <ele>399</ele>
        <time>2015-10-29T09:39:25Z</time>
      </trkpt>
      <trkpt lat="44.99419" lon="4.5178">
        <ele>400</ele>
        <time>2015-10-29T09:39:31Z</time>
      </trkpt>
      <trkpt lat="44.99428" lon="4.51786">
        <ele>402</ele>
        <time>2015-10-29T09:39:36Z</time>
      </trkpt>
      <trkpt lat="44.99436" lon="4.5179">
        <ele>403</ele>
        <time>2015-10-29T09:39:42Z</time>
      </trkpt>
      <trkpt lat="44.99443" lon="4.51796">
        <ele>405</ele>
        <time>2015-10-29T09:39:48Z</time>
      </trkpt>
      <trkpt lat="44.9945" lon="4.51797">
        <ele>405</ele>
        <time>2015-10-29T09:39:52Z</time>
      </trkpt>
      <trkpt lat="44.99459" lon="4.51798">
        <ele>405</ele>
        <time>2015-10-29T09:39:56Z</time>
      </trkpt>
      <trkpt lat="44.99466" lon="4.51803">
        <ele>406</ele>
        <time>2015-10-29T09:40:01Z</time>
      </trkpt>
      <trkpt lat="44.99472" lon="4.51808">
        <ele>408</ele>
        <time>2015-10-29T09:40:05Z</time>
      </trkpt>
      <trkpt lat="44.99481" lon="4.51809">
        <ele>408</ele>
        <time>2015-10-29T09:40:12Z</time>
      </trkpt>
      <trkpt lat="44.99489" lon="4.51813">
        <ele>409</ele>
        <time>2015-10-29T09:40:17Z</time>
      </trkpt>
      <trkpt lat="44.99492" lon="4.51815">
        <ele>410</ele>
        <time>2015-10-29T09:40:21Z</time>
      </trkpt>
      <trkpt lat="44.99502" lon="4.51806">
        <ele>411</ele>
        <time>2015-10-29T09:40:29Z</time>
      </trkpt>
      <trkpt lat="44.99508" lon="4.51798">
        <ele>409</ele>
        <time>2015-10-29T09:40:36Z</time>
      </trkpt>
      <trkpt lat="44.99514" lon="4.51791">
        <ele>409</ele>
        <time>2015-10-29T09:40:43Z</time>
      </trkpt>
      <trkpt lat="44.99519" lon="4.51784">
        <ele>409</ele>
        <time>2015-10-29T09:40:47Z</time>
      </trkpt>
      <trkpt lat="44.99526" lon="4.51777">
        <ele>409</ele>
        <time>2015-10-29T09:40:51Z</time>
      </trkpt>
      <trkpt lat="44.99535" lon="4.51769">
        <ele>411</ele>
        <time>2015-10-29T09:40:56Z</time>
      </trkpt>
      <trkpt lat="44.99539" lon="4.51764">
        <ele>411</ele>
        <time>2015-10-29T09:40:59Z</time>
      </trkpt>
      <trkpt lat="44.99547" lon="4.51756">
        <ele>412</ele>
        <time>2015-10-29T09:41:04Z</time>
      </trkpt>
      <trkpt lat="44.99548" lon="4.51755">
        <ele>412</ele>
        <time>2015-10-29T09:41:06Z</time>
      </trkpt>
      <trkpt lat="44.99558" lon="4.51753">
        <ele>414</ele>
        <time>2015-10-29T09:41:12Z</time>
      </trkpt>
      <trkpt lat="44.99563" lon="4.51752">
        <ele>417</ele>
        <time>2015-10-29T09:41:17Z</time>
      </trkpt>
      <trkpt lat="44.99567" lon="4.51747">
        <ele>416</ele>
        <time>2015-10-29T09:41:23Z</time>
      </trkpt>
      <trkpt lat="44.99568" lon="4.51727">
        <ele>412</ele>
        <time>2015-10-29T09:41:38Z</time>
      </trkpt>
      <trkpt lat="44.99555" lon="4.51706">
        <ele>407</ele>
        <time>2015-10-29T09:41:43Z</time>
      </trkpt>
      <trkpt lat="44.99547" lon="4.51697">
        <ele>405</ele>
        <time>2015-10-29T09:41:49Z</time>
      </trkpt>
      <trkpt lat="44.9954" lon="4.51693">
        <ele>404</ele>
        <time>2015-10-29T09:42:11Z</time>
      </trkpt>
      <trkpt lat="44.9954" lon="4.51693">
        <ele>404</ele>
        <time>2015-10-29T09:42:12Z</time>
      </trkpt>
    </trkseg>
  </trk>
</gpx>